Observation data for Tahoka on 01/19/2019      Previous  Date  Next       Current Mesonet Observations  Soil Data  Daily Summary Page  Observations in Plain Language
KTAS 190600Z 34026G31KT 03/M02 A3005 RMK A01 T00251016  RH  074%=      5-min Rain = 0
KTAS 190601Z 34030G36KT 03/M02 A3005 RMK A01 T00261017  RH  074%=      5-min Rain = 0
KTAS 190602Z 35026G32KT 03/M02 A3005 RMK A01 T00261018  RH  073%=      5-min Rain = 0
KTAS 190603Z 34027KT 03/M02 A3005 RMK A01 T00261018  RH  073%=      5-min Rain = 0
KTAS 190604Z 34024G29KT 03/M02 A3005 RMK A01 T00261018  RH  073%=      5-min Rain = 0
KTAS 190605Z 34023G28KT 03/M02 A3005 RMK A01 T00251018  RH  073%=      5-min Rain = 0
KTAS 190606Z 34027G34KT 03/M02 A3005 RMK A01 T00251018  RH  074%=      5-min Rain = 0
KTAS 190607Z 34031G36KT 03/M02 A3005 RMK A01 T00251018  RH  074%=      5-min Rain = 0
KTAS 190608Z 34026G33KT 03/M02 A3005 RMK A01 T00251018  RH  074%=      5-min Rain = 0
KTAS 190609Z 34023G29KT 02/M02 A3005 RMK A01 T00241017  RH  074%=      5-min Rain = 0
KTAS 190610Z 34023G28KT 02/M02 A3005 RMK A01 T00241017  RH  074%=      5-min Rain = 0
KTAS 190611Z 34025G34KT 02/M02 A3005 RMK A01 T00241017  RH  075%=      5-min Rain = 0
KTAS 190612Z 34027G32KT 02/M02 A3005 RMK A01 T00231017  RH  075%=      5-min Rain = 0
KTAS 190613Z 34022G27KT 02/M02 A3006 RMK A01 T00221017  RH  075%=      5-min Rain = 0
KTAS 190614Z 34022G27KT 02/M02 A3005 RMK A01 T00221016  RH  076%=      5-min Rain = 0
KTAS 190615Z 35021KT 02/M02 A3006 RMK A01 T00221016  RH  076%=      5-min Rain = 0
KTAS 190616Z 35021KT 02/M02 A3006 RMK A01 T00211015  RH  077%=      5-min Rain = 0
KTAS 190617Z 34021G27KT 02/M02 A3006 RMK A01 T00211015  RH  077%=      5-min Rain = 0
KTAS 190618Z 34022G28KT 02/M02 A3006 RMK A01 T00211015  RH  077%=      5-min Rain = 0
KTAS 190619Z 34020G25KT 02/M01 A3006 RMK A01 T00211014  RH  078%=      5-min Rain = 0
KTAS 190620Z 35018KT 02/M01 A3006 RMK A01 T00211014  RH  078%=      5-min Rain = 0
KTAS 190621Z 35018G25KT 02/M01 A3006 RMK A01 T00211013  RH  079%=      5-min Rain = 0
KTAS 190622Z 35023G32KT 02/M01 A3006 RMK A01 T00201013  RH  079%=      5-min Rain = 0
KTAS 190623Z 35023KT 02/M01 A3006 RMK A01 T00191014  RH  079%=      5-min Rain = 0
KTAS 190624Z 35025KT 02/M01 A3006 RMK A01 T00181014  RH  079%=      5-min Rain = 0
KTAS 190625Z 35022G29KT 02/M01 A3006 RMK A01 T00181014  RH  079%=      5-min Rain = 0
KTAS 190626Z 34027G32KT 02/M01 A3006 RMK A01 T00171014  RH  080%=      5-min Rain = 0
KTAS 190627Z 34022G27KT 02/M01 A3006 RMK A01 T00161014  RH  080%=      5-min Rain = 0
KTAS 190628Z 34023G28KT 02/M01 A3006 RMK A01 T00161014  RH  081%=      5-min Rain = 0
KTAS 190629Z 35022KT 02/M01 A3006 RMK A01 T00151013  RH  081%=      5-min Rain = 0
KTAS 190630Z 34019KT 02/M01 A3007 RMK A01 T00151013  RH  082%=      5-min Rain = 0
KTAS 190631Z 34021KT 01/M01 A3006 RMK A01 T00141013  RH  082%=      5-min Rain = 0
KTAS 190632Z 34020G26KT 01/M01 A3007 RMK A01 T00141012  RH  083%=      5-min Rain = 0
KTAS 190633Z 34021KT 01/M01 A3007 RMK A01 T00141012  RH  083%=      5-min Rain = 0
KTAS 190634Z 34020G28KT 01/M01 A3007 RMK A01 T00131011  RH  084%=      5-min Rain = 0
KTAS 190635Z 35024KT 01/M01 A3007 RMK A01 T00131011  RH  084%=      5-min Rain = 0
KTAS 190636Z 35023KT 01/M01 A3007 RMK A01 T00121011  RH  084%=      5-min Rain = 0
KTAS 190637Z 35022G28KT 01/M01 A3007 RMK A01 T00121011  RH  085%=      5-min Rain = 0
KTAS 190638Z 35022KT 01/M01 A3007 RMK A01 T00111011  RH  085%=      5-min Rain = 0
KTAS 190639Z 35023KT 01/M01 A3007 RMK A01 T00111011  RH  085%=      5-min Rain = 0
KTAS 190640Z 35021KT 01/M01 A3007 RMK A01 T00111011  RH  086%=      5-min Rain = 0
KTAS 190641Z 35020KT 01/M01 A3007 RMK A01 T00101011  RH  086%=      5-min Rain = 0
KTAS 190642Z 34017KT 01/M01 A3007 RMK A01 T00101010  RH  086%=      5-min Rain = 0
KTAS 190643Z 34017G24KT 01/M01 A3007 RMK A01 T00101010  RH  087%=      5-min Rain = 0
KTAS 190644Z 34019G24KT 01/M01 A3007 RMK A01 T00101010  RH  087%=      5-min Rain = 0
KTAS 190645Z 35018KT 01/M01 A3007 RMK A01 T00091010  RH  087%=      5-min Rain = 0
KTAS 190646Z 34019G24KT 01/M01 A3007 RMK A01 T00091009  RH  087%=      5-min Rain = 0
KTAS 190647Z 35019KT 01/M01 A3007 RMK A01 T00091009  RH  087%=      5-min Rain = 0
KTAS 190648Z 35020KT 01/M01 A3007 RMK A01 T00091009  RH  088%=      5-min Rain = 0
KTAS 190649Z 34016G22KT 01/M01 A3007 RMK A01 T00101009  RH  088%=      5-min Rain = 0
KTAS 190650Z 34018KT 01/M01 A3007 RMK A01 T00091009  RH  088%=      5-min Rain = 0
KTAS 190651Z 34015KT 01/M01 A3007 RMK A01 T00091009  RH  088%=      5-min Rain = 0
KTAS 190652Z 34017KT 01/M01 A3007 RMK A01 T00091009  RH  088%=      5-min Rain = 0
KTAS 190653Z 34015KT 01/M01 A3008 RMK A01 T00091008  RH  088%=      5-min Rain = 0
KTAS 190654Z 34016KT 01/M01 A3008 RMK A01 T00091008  RH  088%=      5-min Rain = 0
KTAS 190655Z 34013KT 01/M01 A3008 RMK A01 T00091008  RH  088%=      5-min Rain = 0
KTAS 190656Z 34013KT 01/M01 A3008 RMK A01 T00091008  RH  088%=      5-min Rain = 0
KTAS 190657Z 34013KT 01/M01 A3008 RMK A01 T00091008  RH  088%=      5-min Rain = 0
KTAS 190658Z 34015KT 01/M01 A3008 RMK A01 T00091008  RH  088%=      5-min Rain = 0
KTAS 190659Z 33015KT 01/M01 A3008 RMK A01 T00091008  RH  088%=      5-min Rain = 0
KTAS 190700Z 34016KT 01/M01 A3008 RMK A01 T00101008  RH  088%=      5-min Rain = 0
KTAS 190701Z 33014KT 01/M01 A3008 RMK A01 T00101008  RH  088%=      5-min Rain = 0
KTAS 190702Z 34014KT 01/M01 A3008 RMK A01 T00101008  RH  088%=      5-min Rain = 0
KTAS 190703Z 34015KT 01/M01 A3008 RMK A01 T00101007  RH  088%=      5-min Rain = 0
KTAS 190704Z 34014KT 01/M01 A3008 RMK A01 T00101008  RH  088%=      5-min Rain = 0
KTAS 190705Z 34013KT 01/M01 A3008 RMK A01 T00111008  RH  088%=      5-min Rain = 0
KTAS 190706Z 33013G24KT 01/M01 A3008 RMK A01 T00111008  RH  087%=      5-min Rain = 0
KTAS 190707Z 33020KT 01/M01 A3008 RMK A01 T00111007  RH  087%=      5-min Rain = 0
KTAS 190708Z 34020KT 01/M01 A3008 RMK A01 T00121007  RH  087%=      5-min Rain = 0
KTAS 190709Z 33019G25KT 01/M01 A3008 RMK A01 T00131007  RH  087%=      5-min Rain = 0
KTAS 190710Z 33019KT 01/M01 A3008 RMK A01 T00141007  RH  086%=      5-min Rain = 0
KTAS 190711Z 33016KT 01/M01 A3008 RMK A01 T00141008  RH  085%=      5-min Rain = 0
KTAS 190712Z 34014G19KT 01/M01 A3008 RMK A01 T00141008  RH  085%=      5-min Rain = 0
KTAS 190713Z 33016KT 01/M01 A3008 RMK A01 T00141009  RH  085%=      5-min Rain = 0
KTAS 190714Z 33017KT 02/M01 A3008 RMK A01 T00151009  RH  085%=      5-min Rain = 0
KTAS 190715Z 33014KT 02/M01 A3008 RMK A01 T00151009  RH  084%=      5-min Rain = 0
KTAS 190716Z 34015KT 02/M01 A3008 RMK A01 T00151009  RH  084%=      5-min Rain = 0
KTAS 190717Z 34016KT 02/M01 A3008 RMK A01 T00151009  RH  084%=      5-min Rain = 0
KTAS 190718Z 33017KT 02/M01 A3008 RMK A01 T00151009  RH  084%=      5-min Rain = 0
KTAS 190719Z 33016KT 02/M01 A3008 RMK A01 T00151010  RH  084%=      5-min Rain = 0
KTAS 190720Z 33016KT 02/M01 A3008 RMK A01 T00151010  RH  084%=      5-min Rain = 0
KTAS 190721Z 34018KT 02/M01 A3008 RMK A01 T00151010  RH  084%=      5-min Rain = 0
KTAS 190722Z 33017KT 02/M01 A3008 RMK A01 T00151010  RH  083%=      5-min Rain = 0
KTAS 190723Z 33016KT 02/M01 A3008 RMK A01 T00151010  RH  083%=      5-min Rain = 0
KTAS 190724Z 33015KT 02/M01 A3008 RMK A01 T00151011  RH  083%=      5-min Rain = 0
KTAS 190725Z 33016KT 02/M01 A3008 RMK A01 T00151011  RH  083%=      5-min Rain = 0
KTAS 190726Z 33017KT 02/M01 A3008 RMK A01 T00151011  RH  083%=      5-min Rain = 0
KTAS 190727Z 34018KT 02/M01 A3008 RMK A01 T00151011  RH  083%=      5-min Rain = 0
KTAS 190728Z 34016G22KT 02/M01 A3008 RMK A01 T00151011  RH  083%=      5-min Rain = 0
KTAS 190729Z 33013G18KT 02/M01 A3008 RMK A01 T00151012  RH  083%=      5-min Rain = 0
KTAS 190730Z 33016G21KT 01/M01 A3008 RMK A01 T00141012  RH  083%=      5-min Rain = 0
KTAS 190731Z 33016KT 02/M01 A3008 RMK A01 T00151011  RH  083%=      5-min Rain = 0
KTAS 190732Z 33016G21KT 02/M01 A3008 RMK A01 T00151011  RH  083%=      5-min Rain = 0
KTAS 190733Z 33018KT 02/M01 A3008 RMK A01 T00151011  RH  083%=      5-min Rain = 0
KTAS 190734Z 33015KT 02/M01 A3009 RMK A01 T00161011  RH  082%=      5-min Rain = 0
KTAS 190735Z 33014KT 02/M01 A3009 RMK A01 T00161011  RH  082%=      5-min Rain = 0
KTAS 190736Z 33016KT 02/M01 A3009 RMK A01 T00161011  RH  082%=      5-min Rain = 0
KTAS 190737Z 33015KT 02/M01 A3009 RMK A01 T00161011  RH  082%=      5-min Rain = 0
KTAS 190738Z 33017KT 02/M01 A3009 RMK A01 T00161011  RH  082%=      5-min Rain = 0
KTAS 190739Z 33017G22KT 02/M01 A3009 RMK A01 T00171011  RH  082%=      5-min Rain = 0
KTAS 190740Z 33017KT 02/M01 A3009 RMK A01 T00171011  RH  082%=      5-min Rain = 0
KTAS 190741Z 33016KT 02/M01 A3009 RMK A01 T00171011  RH  082%=      5-min Rain = 0
KTAS 190742Z 33016KT 02/M01 A3009 RMK A01 T00171011  RH  082%=      5-min Rain = 0
KTAS 190743Z 33016KT 02/M01 A3009 RMK A01 T00181011  RH  082%=      5-min Rain = 0
KTAS 190744Z 33019KT 02/M01 A3009 RMK A01 T00181011  RH  081%=      5-min Rain = 0
KTAS 190745Z 33021KT 02/M01 A3009 RMK A01 T00191011  RH  081%=      5-min Rain = 0
KTAS 190746Z 33017KT 02/M01 A3009 RMK A01 T00191011  RH  080%=      5-min Rain = 0
KTAS 190747Z 33016KT 02/M01 A3009 RMK A01 T00191012  RH  080%=      5-min Rain = 0
KTAS 190748Z 34019KT 02/M01 A301 RMK A01 T00191012  RH  080%=      5-min Rain = 0
KTAS 190749Z 33018KT 02/M01 A301 RMK A01 T00201012  RH  080%=      5-min Rain = 0
KTAS 190750Z 32021KT 02/M01 A301 RMK A01 T00201012  RH  079%=      5-min Rain = 0
KTAS 190751Z 34019G24KT 02/M01 A301 RMK A01 T00201013  RH  079%=      5-min Rain = 0
KTAS 190752Z 33017G22KT 02/M01 A301 RMK A01 T00201013  RH  079%=      5-min Rain = 0
KTAS 190753Z 33020KT 02/M01 A301 RMK A01 T00201014  RH  078%=      5-min Rain = 0
KTAS 190754Z 33020G27KT 02/M01 A301 RMK A01 T00201014  RH  078%=      5-min Rain = 0
KTAS 190755Z 33025G32KT 02/M02 A301 RMK A01 T00211015  RH  077%=      5-min Rain = 0
KTAS 190756Z 33021G27KT 02/M02 A301 RMK A01 T00211016  RH  076%=      5-min Rain = 0
KTAS 190757Z 34018KT 02/M02 A301 RMK A01 T00211017  RH  076%=      5-min Rain = 0
KTAS 190758Z 33020G25KT 02/M02 A301 RMK A01 T00211017  RH  076%=      5-min Rain = 0
KTAS 190759Z 34024KT 02/M02 A301 RMK A01 T00201017  RH  076%=      5-min Rain = 0
KTAS 190800Z 34019KT 02/M02 A301 RMK A01 T00211018  RH  076%=      5-min Rain = 0
KTAS 190801Z 34018G24KT 02/M02 A301 RMK A01 T00201019  RH  076%=      5-min Rain = 0
KTAS 190802Z 34020G25KT 02/M02 A301 RMK A01 T00191019  RH  076%=      5-min Rain = 0
KTAS 190803Z 34021G26KT 02/M02 A301 RMK A01 T00191020  RH  076%=      5-min Rain = 0
KTAS 190804Z 33022G27KT 02/M02 A301 RMK A01 T00191020  RH  075%=      5-min Rain = 0
KTAS 190805Z 34021KT 02/M02 A301 RMK A01 T00191022  RH  074%=      5-min Rain = 0
KTAS 190806Z 34019G25KT 02/M02 A301 RMK A01 T00191022  RH  075%=      5-min Rain = 0
KTAS 190807Z 34018G23KT 02/M02 A301 RMK A01 T00181022  RH  075%=      5-min Rain = 0
KTAS 190808Z 34020KT 02/M02 A301 RMK A01 T00181022  RH  075%=      5-min Rain = 0
KTAS 190809Z 34020KT 02/M02 A301 RMK A01 T00171023  RH  075%=      5-min Rain = 0
KTAS 190810Z 34018KT 02/M02 A301 RMK A01 T00171024  RH  075%=      5-min Rain = 0
KTAS 190811Z 34015KT 02/M02 A301 RMK A01 T00161024  RH  075%=      5-min Rain = 0
KTAS 190812Z 34020G26KT 02/M02 A301 RMK A01 T00151024  RH  075%=      5-min Rain = 0
KTAS 190813Z 33019G24KT 02/M02 A301 RMK A01 T00151024  RH  075%=      5-min Rain = 0
KTAS 190814Z 34023KT 02/M03 A301 RMK A01 T00151025  RH  075%=      5-min Rain = 0
KTAS 190815Z 34017KT 02/M03 A3011 RMK A01 T00151025  RH  075%=      5-min Rain = 0
KTAS 190816Z 34018KT 01/M03 A3011 RMK A01 T00141026  RH  075%=      5-min Rain = 0
KTAS 190817Z 34018G23KT 01/M03 A3011 RMK A01 T00141026  RH  075%=      5-min Rain = 0
KTAS 190818Z 34017KT 01/M03 A3011 RMK A01 T00141026  RH  075%=      5-min Rain = 0
KTAS 190819Z 34018KT 01/M03 A3011 RMK A01 T00131026  RH  075%=      5-min Rain = 0
KTAS 190820Z 34018KT 01/M03 A3011 RMK A01 T00141026  RH  075%=      5-min Rain = 0
KTAS 190821Z 34017KT 01/M03 A3011 RMK A01 T00141026  RH  075%=      5-min Rain = 0
KTAS 190822Z 33020KT 01/M03 A3011 RMK A01 T00131026  RH  075%=      5-min Rain = 0
KTAS 190823Z 34018KT 01/M03 A3011 RMK A01 T00131026  RH  075%=      5-min Rain = 0
KTAS 190824Z 34018KT 01/M03 A3011 RMK A01 T00131026  RH  075%=      5-min Rain = 0
KTAS 190825Z 33018KT 01/M03 A3011 RMK A01 T00131027  RH  075%=      5-min Rain = 0
KTAS 190826Z 33017KT 01/M03 A3011 RMK A01 T00131026  RH  075%=      5-min Rain = 0
KTAS 190827Z 33016KT 01/M03 A3011 RMK A01 T00131027  RH  075%=      5-min Rain = 0
KTAS 190828Z 33015KT 01/M03 A3012 RMK A01 T00131027  RH  075%=      5-min Rain = 0
KTAS 190829Z 32014G19KT 01/M03 A3012 RMK A01 T00121027  RH  075%=      5-min Rain = 0
KTAS 190830Z 33016KT 01/M03 A3012 RMK A01 T00111028  RH  075%=      5-min Rain = 0
KTAS 190831Z 33019KT 01/M03 A3012 RMK A01 T00121027  RH  075%=      5-min Rain = 0
KTAS 190832Z 33018G28KT 01/M03 A3012 RMK A01 T00121027  RH  075%=      5-min Rain = 0
KTAS 190833Z 33018G24KT 01/M03 A3012 RMK A01 T00131027  RH  075%=      5-min Rain = 0
KTAS 190834Z 33020G25KT 01/M03 A3012 RMK A01 T00131027  RH  075%=      5-min Rain = 0
KTAS 190835Z 33020KT 01/M03 A3012 RMK A01 T00141027  RH  074%=      5-min Rain = 0
KTAS 190836Z 33017G23KT 01/M03 A3012 RMK A01 T00141028  RH  074%=      5-min Rain = 0
KTAS 190837Z 33015G21KT 01/M03 A3012 RMK A01 T00131029  RH  074%=      5-min Rain = 0
KTAS 190838Z 32020G25KT 01/M03 A3012 RMK A01 T00121029  RH  074%=      5-min Rain = 0
KTAS 190839Z 33018G24KT 01/M03 A3012 RMK A01 T00131028  RH  074%=      5-min Rain = 0
KTAS 190840Z 33019KT 01/M03 A3012 RMK A01 T00131029  RH  074%=      5-min Rain = 0
KTAS 190841Z 32017KT 01/M03 A3012 RMK A01 T00131029  RH  074%=      5-min Rain = 0
KTAS 190842Z 33016KT 01/M03 A3012 RMK A01 T00121029  RH  074%=      5-min Rain = 0
KTAS 190843Z 33018G23KT 01/M03 A3012 RMK A01 T00121029  RH  074%=      5-min Rain = 0
KTAS 190844Z 33016KT 01/M03 A3012 RMK A01 T00121029  RH  074%=      5-min Rain = 0
KTAS 190845Z 33015KT 01/M03 A3013 RMK A01 T00121030  RH  074%=      5-min Rain = 0
KTAS 190846Z 33015KT 01/M03 A3013 RMK A01 T00111030  RH  074%=      5-min Rain = 0
KTAS 190847Z 33016KT 01/M03 A3013 RMK A01 T00111030  RH  074%=      5-min Rain = 0
KTAS 190848Z 33016G21KT 01/M03 A3013 RMK A01 T00111030  RH  074%=      5-min Rain = 0
KTAS 190849Z 33017KT 01/M03 A3013 RMK A01 T00111029  RH  074%=      5-min Rain = 0
KTAS 190850Z 33015KT 01/M03 A3013 RMK A01 T00111030  RH  074%=      5-min Rain = 0
KTAS 190851Z 33015KT 01/M03 A3013 RMK A01 T00111030  RH  074%=      5-min Rain = 0
KTAS 190852Z 33014G19KT 01/M03 A3013 RMK A01 T00101031  RH  074%=      5-min Rain = 0
KTAS 190853Z 32016KT 01/M03 A3013 RMK A01 T00091031  RH  074%=      5-min Rain = 0
KTAS 190854Z 32017G24KT 01/M03 A3013 RMK A01 T00101030  RH  075%=      5-min Rain = 0
KTAS 190855Z 33018KT 01/M03 A3013 RMK A01 T00101031  RH  074%=      5-min Rain = 0
KTAS 190856Z 33021G26KT 01/M03 A3013 RMK A01 T00101031  RH  074%=      5-min Rain = 0
KTAS 190857Z 33023KT 01/M03 A3013 RMK A01 T00111031  RH  073%=      5-min Rain = 0
KTAS 190858Z 33018G24KT 01/M03 A3013 RMK A01 T00121032  RH  073%=      5-min Rain = 0
KTAS 190859Z 33022KT 01/M03 A3013 RMK A01 T00111033  RH  072%=      5-min Rain = 0
KTAS 190900Z 33022KT 01/M03 A3013 RMK A01 T00121033  RH  072%=      5-min Rain = 0
KTAS 190901Z 33019KT 01/M03 A3013 RMK A01 T00121034  RH  072%=      5-min Rain = 0
KTAS 190902Z 33018KT 01/M03 A3013 RMK A01 T00111034  RH  072%=      5-min Rain = 0
KTAS 190903Z 33017G22KT 01/M04 A3013 RMK A01 T00101035  RH  072%=      5-min Rain = 0
KTAS 190904Z 33019KT 01/M04 A3013 RMK A01 T00101035  RH  072%=      5-min Rain = 0
KTAS 190905Z 33018KT 01/M03 A3013 RMK A01 T00101034  RH  072%=      5-min Rain = 0
KTAS 190906Z 34020KT 01/M03 A3013 RMK A01 T00101034  RH  072%=      5-min Rain = 0
KTAS 190907Z 33018KT 01/M03 A3014 RMK A01 T00101034  RH  072%=      5-min Rain = 0
KTAS 190908Z 34017KT 01/M04 A3014 RMK A01 T00101035  RH  072%=      5-min Rain = 0
KTAS 190909Z 33018G23KT 01/M04 A3013 RMK A01 T00101035  RH  072%=      5-min Rain = 0
KTAS 190910Z 33016KT 01/M03 A3013 RMK A01 T00101034  RH  072%=      5-min Rain = 0
KTAS 190911Z 33014G19KT 01/M04 A3013 RMK A01 T00091035  RH  072%=      5-min Rain = 0
KTAS 190912Z 33016KT 01/M04 A3013 RMK A01 T00081035  RH  073%=      5-min Rain = 0
KTAS 190913Z 33014KT 01/M04 A3013 RMK A01 T00081035  RH  073%=      5-min Rain = 0
KTAS 190914Z 33014KT 01/M04 A3014 RMK A01 T00071036  RH  073%=      5-min Rain = 0
KTAS 190915Z 33013KT 01/M04 A3014 RMK A01 T00071035  RH  073%=      5-min Rain = 0
KTAS 190916Z 32014KT 01/M04 A3014 RMK A01 T00071035  RH  074%=      5-min Rain = 0
KTAS 190917Z 33016KT 01/M04 A3013 RMK A01 T00071035  RH  074%=      5-min Rain = 0
KTAS 190918Z 32016G21KT 01/M03 A3014 RMK A01 T00081033  RH  074%=      5-min Rain = 0
KTAS 190919Z 33016KT 01/M03 A3014 RMK A01 T00081034  RH  073%=      5-min Rain = 0
KTAS 190920Z 33017KT 01/M03 A3014 RMK A01 T00091034  RH  073%=      5-min Rain = 0
KTAS 190921Z 33015KT 01/M03 A3014 RMK A01 T00091034  RH  073%=      5-min Rain = 0
KTAS 190922Z 33015KT 01/M04 A3014 RMK A01 T00091035  RH  073%=      5-min Rain = 0
KTAS 190923Z 33016KT 01/M04 A3014 RMK A01 T00091035  RH  073%=      5-min Rain = 0
KTAS 190924Z 33014KT 01/M04 A3014 RMK A01 T00081035  RH  073%=      5-min Rain = 0
KTAS 190925Z 33017KT 01/M04 A3014 RMK A01 T00081036  RH  073%=      5-min Rain = 0
KTAS 190926Z 33018KT 01/M04 A3014 RMK A01 T00091035  RH  073%=      5-min Rain = 0
KTAS 190927Z 33015KT 01/M04 A3014 RMK A01 T00091035  RH  072%=      5-min Rain = 0
KTAS 190928Z 33015KT 01/M04 A3014 RMK A01 T00081037  RH  072%=      5-min Rain = 0
KTAS 190929Z 33017KT 01/M04 A3014 RMK A01 T00091036  RH  072%=      5-min Rain = 0
KTAS 190930Z 33015KT 01/M04 A3014 RMK A01 T00091036  RH  072%=      5-min Rain = 0
KTAS 190931Z 33015KT 01/M04 A3014 RMK A01 T00081037  RH  072%=      5-min Rain = 0
KTAS 190932Z 33015KT 01/M04 A3014 RMK A01 T00081037  RH  072%=      5-min Rain = 0
KTAS 190933Z 33015KT 01/M04 A3014 RMK A01 T00081037  RH  072%=      5-min Rain = 0
KTAS 190934Z 33013KT 01/M04 A3014 RMK A01 T00081037  RH  072%=      5-min Rain = 0
KTAS 190935Z 33013KT 01/M04 A3014 RMK A01 T00071037  RH  072%=      5-min Rain = 0
KTAS 190936Z 33014KT 01/M04 A3014 RMK A01 T00071037  RH  072%=      5-min Rain = 0
KTAS 190937Z 32013KT 01/M04 A3014 RMK A01 T00071036  RH  073%=      5-min Rain = 0
KTAS 190938Z 32016KT 01/M04 A3014 RMK A01 T00071036  RH  073%=      5-min Rain = 0
KTAS 190939Z 32015KT 01/M04 A3015 RMK A01 T00081035  RH  073%=      5-min Rain = 0
KTAS 190940Z 32017G22KT 01/M04 A3015 RMK A01 T00081035  RH  073%=      5-min Rain = 0
KTAS 190941Z 33016KT 01/M04 A3015 RMK A01 T00081035  RH  073%=      5-min Rain = 0
KTAS 190942Z 32014KT 01/M04 A3015 RMK A01 T00081035  RH  073%=      5-min Rain = 0
KTAS 190943Z 32015KT 01/M04 A3015 RMK A01 T00071036  RH  073%=      5-min Rain = 0
KTAS 190944Z 32016KT 01/M04 A3015 RMK A01 T00071035  RH  073%=      5-min Rain = 0
KTAS 190945Z 32017KT 01/M04 A3015 RMK A01 T00071035  RH  073%=      5-min Rain = 0
KTAS 190946Z 33018KT 01/M04 A3015 RMK A01 T00081035  RH  073%=      5-min Rain = 0
KTAS 190947Z 32016G21KT 01/M04 A3015 RMK A01 T00081035  RH  073%=      5-min Rain = 0
KTAS 190948Z 32017KT 01/M04 A3015 RMK A01 T00081035  RH  073%=      5-min Rain = 0
KTAS 190949Z 33018KT 01/M04 A3015 RMK A01 T00081035  RH  073%=      5-min Rain = 0
KTAS 190950Z 33017G22KT 01/M04 A3015 RMK A01 T00081035  RH  072%=      5-min Rain = 0
KTAS 190951Z 32017G22KT 01/M04 A3015 RMK A01 T00081036  RH  073%=      5-min Rain = 0
KTAS 190952Z 32018KT 01/M04 A3015 RMK A01 T00081036  RH  073%=      5-min Rain = 0
KTAS 190953Z 32016KT 01/M04 A3015 RMK A01 T00081036  RH  073%=      5-min Rain = 0
KTAS 190954Z 33016KT 01/M04 A3015 RMK A01 T00071036  RH  073%=      5-min Rain = 0
KTAS 190955Z 33017KT 01/M04 A3016 RMK A01 T00071036  RH  073%=      5-min Rain = 0
KTAS 190956Z 32015KT 01/M04 A3016 RMK A01 T00071036  RH  073%=      5-min Rain = 0
KTAS 190957Z 32018KT 01/M04 A3016 RMK A01 T00071037  RH  073%=      5-min Rain = 0
KTAS 190958Z 33018KT 01/M04 A3016 RMK A01 T00071036  RH  073%=      5-min Rain = 0
KTAS 190959Z 32017G22KT 01/M04 A3016 RMK A01 T00071036  RH  072%=      5-min Rain = 0
KTAS 191000Z 33019KT 01/M04 A3015 RMK A01 T00071037  RH  072%=      5-min Rain = 0
KTAS 191001Z 33019KT 01/M04 A3016 RMK A01 T00081037  RH  072%=      5-min Rain = 0
KTAS 191002Z 33018G23KT 01/M04 A3016 RMK A01 T00081037  RH  072%=      5-min Rain = 0
KTAS 191003Z 33017KT 01/M04 A3016 RMK A01 T00081038  RH  072%=      5-min Rain = 0
KTAS 191004Z 33017KT 01/M04 A3016 RMK A01 T00071038  RH  072%=      5-min Rain = 0
KTAS 191005Z 33017G25KT 01/M04 A3016 RMK A01 T00071038  RH  072%=      5-min Rain = 0
KTAS 191006Z 33016G21KT 01/M04 A3016 RMK A01 T00071039  RH  072%=      5-min Rain = 0
KTAS 191007Z 34019KT 01/M04 A3016 RMK A01 T00061039  RH  071%=      5-min Rain = 0
KTAS 191008Z 33022G27KT 01/M04 A3016 RMK A01 T00081039  RH  071%=      5-min Rain = 0
KTAS 191009Z 33019G24KT 01/M04 A3016 RMK A01 T00091039  RH  070%=      5-min Rain = 0
KTAS 191010Z 33018G25KT 01/M04 A3016 RMK A01 T00081041  RH  070%=      5-min Rain = 0
KTAS 191011Z 33021G26KT 01/M04 A3016 RMK A01 T00081040  RH  070%=      5-min Rain = 0
KTAS 191012Z 34019KT 01/M04 A3016 RMK A01 T00081041  RH  070%=      5-min Rain = 0
KTAS 191013Z 34018G23KT 01/M04 A3016 RMK A01 T00081041  RH  070%=      5-min Rain = 0
KTAS 191014Z 34019KT 01/M04 A3016 RMK A01 T00081041  RH  070%=      5-min Rain = 0
KTAS 191015Z 34018G23KT 01/M04 A3016 RMK A01 T00081041  RH  070%=      5-min Rain = 0
KTAS 191016Z 33018G23KT 01/M04 A3016 RMK A01 T00071042  RH  070%=      5-min Rain = 0
KTAS 191017Z 33020KT 01/M04 A3016 RMK A01 T00071041  RH  070%=      5-min Rain = 0
KTAS 191018Z 34023G29KT 01/M04 A3016 RMK A01 T00081041  RH  070%=      5-min Rain = 0
KTAS 191019Z 34023G29KT 01/M04 A3016 RMK A01 T00091041  RH  069%=      5-min Rain = 0
KTAS 191020Z 33023KT 01/M04 A3016 RMK A01 T00091041  RH  069%=      5-min Rain = 0
KTAS 191021Z 33020G26KT 01/M04 A3016 RMK A01 T00101041  RH  069%=      5-min Rain = 0
KTAS 191022Z 33018KT 01/M04 A3016 RMK A01 T00091042  RH  069%=      5-min Rain = 0
KTAS 191023Z 33018G23KT 01/M04 A3016 RMK A01 T00081042  RH  069%=      5-min Rain = 0
KTAS 191024Z 33019G24KT 01/M04 A3016 RMK A01 T00081042  RH  069%=      5-min Rain = 0
KTAS 191025Z 33019G24KT 01/M04 A3016 RMK A01 T00091041  RH  069%=      5-min Rain = 0
KTAS 191026Z 33017KT 01/M04 A3016 RMK A01 T00081042  RH  069%=      5-min Rain = 0
KTAS 191027Z 33021KT 01/M04 A3016 RMK A01 T00081042  RH  069%=      5-min Rain = 0
KTAS 191028Z 33021KT 01/M04 A3016 RMK A01 T00091041  RH  069%=      5-min Rain = 0
KTAS 191029Z 34023G28KT 01/M04 A3016 RMK A01 T00091041  RH  069%=      5-min Rain = 0
KTAS 191030Z 33020G26KT 01/M04 A3017 RMK A01 T00101041  RH  069%=      5-min Rain = 0
KTAS 191031Z 33019KT 01/M04 A3017 RMK A01 T00091042  RH  069%=      5-min Rain = 0
KTAS 191032Z 33019KT 01/M04 A3017 RMK A01 T00081041  RH  069%=      5-min Rain = 0
KTAS 191033Z 33019KT 01/M04 A3017 RMK A01 T00081041  RH  070%=      5-min Rain = 0
KTAS 191034Z 33017KT 01/M04 A3017 RMK A01 T00081040  RH  070%=      5-min Rain = 0
KTAS 191035Z 33018KT 01/M04 A3017 RMK A01 T00071041  RH  070%=      5-min Rain = 0
KTAS 191036Z 32019KT 01/M04 A3017 RMK A01 T00071040  RH  071%=      5-min Rain = 0
KTAS 191037Z 33016G21KT 01/M04 A3017 RMK A01 T00081040  RH  071%=      5-min Rain = 0
KTAS 191038Z 33017KT 01/M04 A3017 RMK A01 T00071040  RH  071%=      5-min Rain = 0
KTAS 191039Z 33018KT 01/M04 A3017 RMK A01 T00061040  RH  071%=      5-min Rain = 0
KTAS 191040Z 33017G22KT 01/M04 A3017 RMK A01 T00061040  RH  071%=      5-min Rain = 0
KTAS 191041Z 33016KT 01/M04 A3017 RMK A01 T00061040  RH  072%=      5-min Rain = 0
KTAS 191042Z 33015KT 01/M04 A3017 RMK A01 T00061039  RH  072%=      5-min Rain = 0
KTAS 191043Z 33016KT 01/M04 A3017 RMK A01 T00051039  RH  072%=      5-min Rain = 0
KTAS 191044Z 33014KT 01/M04 A3017 RMK A01 T00051039  RH  072%=      5-min Rain = 0
KTAS 191045Z 33016KT 01/M04 A3017 RMK A01 T00051039  RH  072%=      5-min Rain = 0
KTAS 191046Z 32016G21KT 01/M04 A3017 RMK A01 T00051039  RH  073%=      5-min Rain = 0
KTAS 191047Z 33015G20KT 01/M04 A3017 RMK A01 T00051038  RH  073%=      5-min Rain = 0
KTAS 191048Z 33018KT 01/M04 A3017 RMK A01 T00051038  RH  073%=      5-min Rain = 0
KTAS 191049Z 33014G22KT 01/M04 A3017 RMK A01 T00051038  RH  073%=      5-min Rain = 0
KTAS 191050Z 33016KT 00/M04 A3017 RMK A01 T00041038  RH  073%=      5-min Rain = 0
KTAS 191051Z 33017KT 01/M04 A3017 RMK A01 T00051038  RH  073%=      5-min Rain = 0
KTAS 191052Z 33015KT 01/M04 A3017 RMK A01 T00051037  RH  073%=      5-min Rain = 0
KTAS 191053Z 33014G19KT 01/M04 A3018 RMK A01 T00051038  RH  073%=      5-min Rain = 0
KTAS 191054Z 33017KT 01/M04 A3018 RMK A01 T00051037  RH  073%=      5-min Rain = 0
KTAS 191055Z 33016KT 01/M04 A3018 RMK A01 T00051037  RH  073%=      5-min Rain = 0
KTAS 191056Z 33017KT 01/M04 A3018 RMK A01 T00051037  RH  073%=      5-min Rain = 0
KTAS 191057Z 33017KT 01/M04 A3018 RMK A01 T00051037  RH  073%=      5-min Rain = 0
KTAS 191058Z 33016KT 01/M04 A3018 RMK A01 T00051037  RH  073%=      5-min Rain = 0
KTAS 191059Z 33017KT 01/M04 A3018 RMK A01 T00051037  RH  073%=      5-min Rain = 0
KTAS 191100Z 33017G23KT 01/M04 A3018 RMK A01 T00061036  RH  073%=      5-min Rain = 0
KTAS 191101Z 33017KT 01/M04 A3018 RMK A01 T00051037  RH  073%=      5-min Rain = 0
KTAS 191102Z 33017KT 01/M04 A3018 RMK A01 T00061037  RH  073%=      5-min Rain = 0
KTAS 191103Z 33017KT 01/M04 A3018 RMK A01 T00061037  RH  073%=      5-min Rain = 0
KTAS 191104Z 33017KT 01/M04 A3018 RMK A01 T00061037  RH  073%=      5-min Rain = 0
KTAS 191105Z 33020G25KT 01/M04 A3018 RMK A01 T00061036  RH  073%=      5-min Rain = 0
KTAS 191106Z 33020KT 01/M04 A3018 RMK A01 T00071036  RH  073%=      5-min Rain = 0
KTAS 191107Z 33017KT 01/M04 A3018 RMK A01 T00071036  RH  073%=      5-min Rain = 0
KTAS 191108Z 33017G24KT 01/M04 A3018 RMK A01 T00071036  RH  073%=      5-min Rain = 0
KTAS 191109Z 33015G20KT 01/M04 A3019 RMK A01 T00061037  RH  073%=      5-min Rain = 0
KTAS 191110Z 33016G21KT 01/M04 A3019 RMK A01 T00061037  RH  073%=      5-min Rain = 0
KTAS 191111Z 33014KT 01/M04 A3019 RMK A01 T00061037  RH  073%=      5-min Rain = 0
KTAS 191112Z 33015KT 01/M04 A3019 RMK A01 T00051037  RH  073%=      5-min Rain = 0
KTAS 191113Z 33017G23KT 01/M04 A3019 RMK A01 T00051037  RH  074%=      5-min Rain = 0
KTAS 191114Z 33015KT 01/M04 A3019 RMK A01 T00061036  RH  074%=      5-min Rain = 0
KTAS 191115Z 33016KT 01/M04 A3019 RMK A01 T00061037  RH  073%=      5-min Rain = 0
KTAS 191116Z 33015KT 01/M04 A3019 RMK A01 T00051037  RH  073%=      5-min Rain = 0
KTAS 191117Z 33017KT 01/M04 A3019 RMK A01 T00051036  RH  074%=      5-min Rain = 0
KTAS 191118Z 33020KT 01/M04 A3019 RMK A01 T00061035  RH  074%=      5-min Rain = 0
KTAS 191119Z 33019G24KT 01/M04 A3019 RMK A01 T00081035  RH  073%=      5-min Rain = 0
KTAS 191120Z 33015KT 01/M04 A3019 RMK A01 T00071036  RH  073%=      5-min Rain = 0
KTAS 191121Z 33018KT 01/M04 A3019 RMK A01 T00061036  RH  073%=      5-min Rain = 0
KTAS 191122Z 33016KT 01/M04 A3019 RMK A01 T00061036  RH  073%=      5-min Rain = 0
KTAS 191123Z 33015KT 01/M04 A3019 RMK A01 T00061036  RH  073%=      5-min Rain = 0
KTAS 191124Z 33016G22KT 01/M04 A3019 RMK A01 T00061037  RH  073%=      5-min Rain = 0
KTAS 191125Z 33016KT 01/M04 A3019 RMK A01 T00051037  RH  073%=      5-min Rain = 0
KTAS 191126Z 33017KT 01/M04 A3018 RMK A01 T00061036  RH  074%=      5-min Rain = 0
KTAS 191127Z 33019KT 01/M04 A3018 RMK A01 T00061036  RH  073%=      5-min Rain = 0
KTAS 191128Z 34017G22KT 01/M04 A3018 RMK A01 T00071036  RH  073%=      5-min Rain = 0
KTAS 191129Z 33019KT 01/M04 A3018 RMK A01 T00071036  RH  073%=      5-min Rain = 0
KTAS 191130Z 34018KT 01/M04 A3018 RMK A01 T00071036  RH  073%=      5-min Rain = 0
KTAS 191131Z 33017G23KT 01/M04 A3018 RMK A01 T00071036  RH  073%=      5-min Rain = 0
KTAS 191132Z 34018KT 01/M04 A3018 RMK A01 T00071036  RH  073%=      5-min Rain = 0
KTAS 191133Z 33016KT 01/M04 A3018 RMK A01 T00071037  RH  073%=      5-min Rain = 0
KTAS 191134Z 33020KT 01/M04 A3018 RMK A01 T00071036  RH  073%=      5-min Rain = 0
KTAS 191135Z 34018G23KT 01/M04 A3018 RMK A01 T00081036  RH  073%=      5-min Rain = 0
KTAS 191136Z 33019KT 01/M04 A3018 RMK A01 T00071036  RH  073%=      5-min Rain = 0
KTAS 191137Z 34017G22KT 01/M04 A3018 RMK A01 T00081036  RH  072%=      5-min Rain = 0
KTAS 191138Z 33016KT 01/M04 A3018 RMK A01 T00071037  RH  072%=      5-min Rain = 0
KTAS 191139Z 34019KT 01/M04 A3018 RMK A01 T00071037  RH  072%=      5-min Rain = 0
KTAS 191140Z 33016KT 01/M04 A3018 RMK A01 T00081036  RH  072%=      5-min Rain = 0
KTAS 191141Z 34017KT 01/M04 A3018 RMK A01 T00071037  RH  072%=      5-min Rain = 0
KTAS 191142Z 33018G24KT 01/M04 A3018 RMK A01 T00071037  RH  072%=      5-min Rain = 0
KTAS 191143Z 33016KT 01/M04 A3018 RMK A01 T00071037  RH  072%=      5-min Rain = 0
KTAS 191144Z 33014KT 01/M04 A3018 RMK A01 T00071037  RH  072%=      5-min Rain = 0
KTAS 191145Z 33014KT 01/M04 A3018 RMK A01 T00061038  RH  073%=      5-min Rain = 0
KTAS 191146Z 33016KT 01/M04 A3018 RMK A01 T00061038  RH  073%=      5-min Rain = 0
KTAS 191147Z 34015KT 01/M04 A3018 RMK A01 T00071036  RH  073%=      5-min Rain = 0
KTAS 191148Z 33014KT 01/M04 A3018 RMK A01 T00061037  RH  073%=      5-min Rain = 0
KTAS 191149Z 34015KT 01/M04 A3018 RMK A01 T00051038  RH  073%=      5-min Rain = 0
KTAS 191150Z 33015KT 01/M04 A3018 RMK A01 T00061037  RH  073%=      5-min Rain = 0
KTAS 191151Z 34015KT 01/M04 A3018 RMK A01 T00061037  RH  073%=      5-min Rain = 0
KTAS 191152Z 34017G22KT 01/M04 A3018 RMK A01 T00061037  RH  073%=      5-min Rain = 0
KTAS 191153Z 33016KT 01/M04 A3018 RMK A01 T00061037  RH  073%=      5-min Rain = 0
KTAS 191154Z 33017KT 01/M04 A3019 RMK A01 T00071037  RH  073%=      5-min Rain = 0
KTAS 191155Z 33015KT 01/M04 A3018 RMK A01 T00071037  RH  072%=      5-min Rain = 0
KTAS 191156Z 33015KT 01/M04 A3019 RMK A01 T00061038  RH  072%=      5-min Rain = 0
KTAS 191157Z 34018KT 01/M04 A3018 RMK A01 T00071037  RH  073%=      5-min Rain = 0
KTAS 191158Z 34017KT 01/M04 A3018 RMK A01 T00081036  RH  072%=      5-min Rain = 0
KTAS 191159Z 33014KT 01/M04 A3019 RMK A01 T00071038  RH  072%=      5-min Rain = 0
KTAS 191200Z 34014KT 01/M04 A3019 RMK A01 T00061038  RH  072%=      5-min Rain = 0
KTAS 191201Z 34016KT 01/M04 A3019 RMK A01 T00061038  RH  072%=      5-min Rain = 0
KTAS 191202Z 34017KT 01/M04 A3019 RMK A01 T00061038  RH  073%=      5-min Rain = 0
KTAS 191203Z 33015KT 01/M04 A3019 RMK A01 T00071037  RH  072%=      5-min Rain = 0
KTAS 191204Z 33013KT 01/M04 A3019 RMK A01 T00061038  RH  072%=      5-min Rain = 0
KTAS 191205Z 34014G19KT 01/M04 A3019 RMK A01 T00061038  RH  072%=      5-min Rain = 0
KTAS 191206Z 34015KT 01/M04 A3019 RMK A01 T00051038  RH  073%=      5-min Rain = 0
KTAS 191207Z 33015KT 01/M04 A3019 RMK A01 T00061037  RH  073%=      5-min Rain = 0
KTAS 191208Z 33013KT 01/M04 A3019 RMK A01 T00061038  RH  073%=      5-min Rain = 0
KTAS 191209Z 33013KT 01/M04 A3019 RMK A01 T00061038  RH  073%=      5-min Rain = 0
KTAS 191210Z 33013KT 01/M04 A3019 RMK A01 T00051039  RH  073%=      5-min Rain = 0
KTAS 191211Z 33012KT 00/M04 A3019 RMK A01 T00041039  RH  073%=      5-min Rain = 0
KTAS 191212Z 33013KT 01/M04 A302 RMK A01 T00051038  RH  073%=      5-min Rain = 0
KTAS 191213Z 33013KT 01/M04 A302 RMK A01 T00051038  RH  073%=      5-min Rain = 0
KTAS 191214Z 33012KT 01/M04 A302 RMK A01 T00051038  RH  073%=      5-min Rain = 0
KTAS 191215Z 33013KT 00/M04 A302 RMK A01 T00041038  RH  073%=      5-min Rain = 0
KTAS 191216Z 33013KT 00/M04 A302 RMK A01 T00041038  RH  073%=      5-min Rain = 0
KTAS 191217Z 33014KT 00/M04 A302 RMK A01 T00041038  RH  073%=      5-min Rain = 0
KTAS 191218Z 33014KT 01/M04 A302 RMK A01 T00051038  RH  073%=      5-min Rain = 0
KTAS 191219Z 33012KT 00/M04 A302 RMK A01 T00041038  RH  073%=      5-min Rain = 0
KTAS 191220Z 33012G17KT 00/M04 A302 RMK A01 T00041039  RH  073%=      5-min Rain = 0
KTAS 191221Z 33013KT 00/M04 A302 RMK A01 T00041038  RH  073%=      5-min Rain = 0
KTAS 191222Z 33014KT 00/M04 A302 RMK A01 T00041038  RH  073%=      5-min Rain = 0
KTAS 191223Z 33012KT 00/M04 A302 RMK A01 T00041038  RH  073%=      5-min Rain = 0
KTAS 191224Z 34013KT 00/M04 A302 RMK A01 T00031038  RH  074%=      5-min Rain = 0
KTAS 191225Z 34013KT 00/M04 A302 RMK A01 T00031038  RH  074%=      5-min Rain = 0
KTAS 191226Z 34012KT 00/M04 A302 RMK A01 T00031038  RH  074%=      5-min Rain = 0
KTAS 191227Z 34011KT 00/M04 A302 RMK A01 T00031039  RH  074%=      5-min Rain = 0
KTAS 191228Z 34011KT 00/M04 A302 RMK A01 T00021039  RH  074%=      5-min Rain = 0
KTAS 191229Z 34011KT 00/M04 A302 RMK A01 T00021039  RH  074%=      5-min Rain = 0
KTAS 191230Z 34012KT 00/M04 A302 RMK A01 T00021039  RH  074%=      5-min Rain = 0
KTAS 191231Z 34011KT 00/M04 A302 RMK A01 T00021039  RH  074%=      5-min Rain = 0
KTAS 191232Z 34013KT 00/M04 A302 RMK A01 T00021038  RH  074%=      5-min Rain = 0
KTAS 191233Z 34013KT 00/M04 A302 RMK A01 T00021038  RH  074%=      5-min Rain = 0
KTAS 191234Z 34011KT 00/M04 A302 RMK A01 T00021038  RH  074%=      5-min Rain = 0
KTAS 191235Z 34012KT 00/M04 A302 RMK A01 T00021039  RH  074%=      5-min Rain = 0
KTAS 191236Z 34013KT 00/M04 A302 RMK A01 T00021038  RH  074%=      5-min Rain = 0
KTAS 191237Z 35012KT 00/M04 A302 RMK A01 T00021038  RH  074%=      5-min Rain = 0
KTAS 191238Z 34012KT 00/M04 A302 RMK A01 T00021038  RH  074%=      5-min Rain = 0
KTAS 191239Z 34012KT 00/M04 A302 RMK A01 T00021039  RH  074%=      5-min Rain = 0
KTAS 191240Z 34011KT 00/M04 A302 RMK A01 T00011039  RH  074%=      5-min Rain = 0
KTAS 191241Z 34012KT 00/04 A302 RMK A01 T00000-40  RH  074%=      5-min Rain = 0
KTAS 191242Z 34012KT 00/M04 A302 RMK A01 T00011039  RH  075%=      5-min Rain = 0
KTAS 191243Z 34010KT 00/M04 A3021 RMK A01 T00011039  RH  075%=      5-min Rain = 0
KTAS 191244Z 34012KT 00/04 A3021 RMK A01 T00000-39  RH  075%=      5-min Rain = 0
KTAS 191245Z 34011KT 00/04 A3021 RMK A01 T00000-39  RH  075%=      5-min Rain = 0
KTAS 191246Z 34012KT 00/04 A3021 RMK A01 T00000-39  RH  075%=      5-min Rain = 0
KTAS 191247Z 34011KT 00/04 A3021 RMK A01 T00000-39  RH  075%=      5-min Rain = 0
KTAS 191248Z 34010KT 00/04 A3021 RMK A01 T00-00-39  RH  075%=      5-min Rain = 0
KTAS 191249Z 34009KT M00/M04 A3021 RMK A01 T10011040  RH  075%=      5-min Rain = 0
KTAS 191250Z 34010KT M00/M04 A3021 RMK A01 T10011039  RH  075%=      5-min Rain = 0
KTAS 191251Z 34010KT M00/M04 A3021 RMK A01 T10011039  RH  075%=      5-min Rain = 0
KTAS 191252Z 33009KT M00/M04 A3021 RMK A01 T10011040  RH  075%=      5-min Rain = 0
KTAS 191253Z 34009KT M00/M04 A3021 RMK A01 T10021040  RH  075%=      5-min Rain = 0
KTAS 191254Z 33009KT M00/M04 A3021 RMK A01 T10031041  RH  076%=      5-min Rain = 0
KTAS 191255Z 33008KT M00/M04 A3021 RMK A01 T10031040  RH  076%=      5-min Rain = 0
KTAS 191256Z 33009KT M00/M04 A3021 RMK A01 T10041041  RH  076%=      5-min Rain = 0
KTAS 191257Z 33009KT M00/M04 A3021 RMK A01 T10041041  RH  076%=      5-min Rain = 0
KTAS 191258Z 33009KT M00/M04 A3021 RMK A01 T10041041  RH  076%=      5-min Rain = 0
KTAS 191259Z 33008KT M00/M04 A3021 RMK A01 T10041041  RH  076%=      5-min Rain = 0
KTAS 191300Z 33009KT M01/M04 A3022 RMK A01 T10051041  RH  076%=      5-min Rain = 0
KTAS 191301Z 33008KT M01/M04 A3022 RMK A01 T10051041  RH  077%=      5-min Rain = 0
KTAS 191302Z 33008KT M01/M04 A3022 RMK A01 T10061042  RH  077%=      5-min Rain = 0
KTAS 191303Z 33007KT M01/M04 A3022 RMK A01 T10071043  RH  077%=      5-min Rain = 0
KTAS 191304Z 33007KT M01/M04 A3022 RMK A01 T10081043  RH  077%=      5-min Rain = 0
KTAS 191305Z 33007KT M01/M04 A3022 RMK A01 T10081043  RH  077%=      5-min Rain = 0
KTAS 191306Z 32007KT M01/M04 A3022 RMK A01 T10081043  RH  077%=      5-min Rain = 0
KTAS 191307Z 32007KT M01/M04 A3022 RMK A01 T10091043  RH  077%=      5-min Rain = 0
KTAS 191308Z 32007KT M01/M04 A3022 RMK A01 T10091044  RH  078%=      5-min Rain = 0
KTAS 191309Z 32007KT M01/M04 A3022 RMK A01 T10101044  RH  078%=      5-min Rain = 0
KTAS 191310Z 32006KT M01/M04 A3022 RMK A01 T10101043  RH  078%=      5-min Rain = 0
KTAS 191311Z 32006KT M01/M04 A3022 RMK A01 T10111044  RH  078%=      5-min Rain = 0
KTAS 191312Z 32006KT M01/M05 A3023 RMK A01 T10121045  RH  078%=      5-min Rain = 0
KTAS 191313Z 32006KT M01/M05 A3023 RMK A01 T10131046  RH  078%=      5-min Rain = 0
KTAS 191314Z 32006KT M01/M05 A3023 RMK A01 T10131046  RH  078%=      5-min Rain = 0
KTAS 191315Z 32006KT M01/M05 A3023 RMK A01 T10141046  RH  079%=      5-min Rain = 0
KTAS 191316Z 32007KT M01/M05 A3023 RMK A01 T10141047  RH  079%=      5-min Rain = 0
KTAS 191317Z 32007KT M01/M05 A3023 RMK A01 T10141046  RH  079%=      5-min Rain = 0
KTAS 191318Z 32006KT M01/M05 A3023 RMK A01 T10131045  RH  079%=      5-min Rain = 0
KTAS 191319Z 33006KT M01/M05 A3023 RMK A01 T10131045  RH  079%=      5-min Rain = 0
KTAS 191320Z 32007KT M01/M05 A3023 RMK A01 T10141045  RH  079%=      5-min Rain = 0
KTAS 191321Z 32007KT M01/M04 A3023 RMK A01 T10141044  RH  080%=      5-min Rain = 0
KTAS 191322Z 32007KT M01/M04 A3023 RMK A01 T10131044  RH  080%=      5-min Rain = 0
KTAS 191323Z 32007KT M01/M04 A3023 RMK A01 T10131043  RH  080%=      5-min Rain = 0
KTAS 191324Z 32007KT M01/M04 A3023 RMK A01 T10131043  RH  080%=      5-min Rain = 0
KTAS 191325Z 32007KT M01/M04 A3023 RMK A01 T10131043  RH  080%=      5-min Rain = 0
KTAS 191326Z 32007KT M01/M04 A3023 RMK A01 T10141044  RH  080%=      5-min Rain = 0
KTAS 191327Z 32007KT M01/M04 A3023 RMK A01 T10141044  RH  080%=      5-min Rain = 0
KTAS 191328Z 32007KT M02/M04 A3023 RMK A01 T10151044  RH  080%=      5-min Rain = 0
KTAS 191329Z 32007KT M02/M05 A3023 RMK A01 T10151045  RH  080%=      5-min Rain = 0
KTAS 191330Z 32007KT M02/M05 A3023 RMK A01 T10151045  RH  080%=      5-min Rain = 0
KTAS 191331Z 32007KT M02/M05 A3023 RMK A01 T10151045  RH  080%=      5-min Rain = 0
KTAS 191332Z 31007KT M02/M04 A3024 RMK A01 T10151044  RH  081%=      5-min Rain = 0
KTAS 191333Z 31007KT M02/M04 A3024 RMK A01 T10161044  RH  081%=      5-min Rain = 0
KTAS 191334Z 31007KT M02/M04 A3024 RMK A01 T10151044  RH  081%=      5-min Rain = 0
KTAS 191335Z 31007KT M02/M04 A3024 RMK A01 T10151044  RH  081%=      5-min Rain = 0
KTAS 191336Z 31007KT M02/M04 A3024 RMK A01 T10151044  RH  081%=      5-min Rain = 0
KTAS 191337Z 31007KT M02/M04 A3024 RMK A01 T10151044  RH  081%=      5-min Rain = 0
KTAS 191338Z 31008KT M02/M04 A3024 RMK A01 T10151043  RH  081%=      5-min Rain = 0
KTAS 191339Z 31007KT M02/M04 A3024 RMK A01 T10151043  RH  081%=      5-min Rain = 0
KTAS 191340Z 31008KT M01/M04 A3024 RMK A01 T10141042  RH  081%=      5-min Rain = 0
KTAS 191341Z 31008KT M01/M04 A3024 RMK A01 T10141042  RH  081%=      5-min Rain = 0
KTAS 191342Z 30008KT M01/M04 A3024 RMK A01 T10141041  RH  081%=      5-min Rain = 0
KTAS 191343Z 30007KT M01/M04 A3024 RMK A01 T10141042  RH  081%=      5-min Rain = 0
KTAS 191344Z 30008KT M01/M04 A3024 RMK A01 T10141041  RH  082%=      5-min Rain = 0
KTAS 191345Z 30009KT M01/M04 A3025 RMK A01 T10131040  RH  082%=      5-min Rain = 0
KTAS 191346Z 30009KT M01/M04 A3025 RMK A01 T10121039  RH  082%=      5-min Rain = 0
KTAS 191347Z 30008KT M01/M04 A3025 RMK A01 T10111039  RH  082%=      5-min Rain = 0
KTAS 191348Z 30008KT M01/M04 A3025 RMK A01 T10111038  RH  082%=      5-min Rain = 0
KTAS 191349Z 30008KT M01/M04 A3025 RMK A01 T10111038  RH  082%=      5-min Rain = 0
KTAS 191350Z 30008KT M01/M04 A3025 RMK A01 T10111039  RH  082%=      5-min Rain = 0
KTAS 191351Z 30007KT M01/M04 A3025 RMK A01 T10111038  RH  082%=      5-min Rain = 0
KTAS 191352Z 30008KT M01/M04 A3025 RMK A01 T10111039  RH  081%=      5-min Rain = 0
KTAS 191353Z 29008KT M01/M04 A3025 RMK A01 T10121040  RH  081%=      5-min Rain = 0
KTAS 191354Z 30008KT M01/M04 A3025 RMK A01 T10121039  RH  082%=      5-min Rain = 0
KTAS 191355Z 30009KT M01/M04 A3025 RMK A01 T10111039  RH  082%=      5-min Rain = 0
KTAS 191356Z 30009KT M01/M04 A3025 RMK A01 T10101038  RH  082%=      5-min Rain = 0
KTAS 191357Z 30009KT M01/M04 A3025 RMK A01 T10091036  RH  082%=      5-min Rain = 0
KTAS 191358Z 31009KT M01/M04 A3025 RMK A01 T10081035  RH  082%=      5-min Rain = 0
KTAS 191359Z 31011KT M01/M03 A3025 RMK A01 T10061034  RH  081%=      5-min Rain = 0
KTAS 191400Z 31010KT M00/M03 A3025 RMK A01 T10041033  RH  081%=      5-min Rain = 0
KTAS 191401Z 31009KT M00/M03 A3025 RMK A01 T10041034  RH  080%=      5-min Rain = 0
KTAS 191402Z 30008KT M00/M04 A3026 RMK A01 T10041035  RH  080%=      5-min Rain = 0
KTAS 191403Z 31009KT M01/M04 A3026 RMK A01 T10051036  RH  080%=      5-min Rain = 0
KTAS 191404Z 30008KT M01/M04 A3026 RMK A01 T10051036  RH  080%=      5-min Rain = 0
KTAS 191405Z 30009KT M01/M04 A3026 RMK A01 T10051036  RH  080%=      5-min Rain = 0
KTAS 191406Z 30009KT M01/M04 A3026 RMK A01 T10051036  RH  080%=      5-min Rain = 0
KTAS 191407Z 30009KT M01/M04 A3026 RMK A01 T10051036  RH  079%=      5-min Rain = 0
KTAS 191408Z 30010KT M00/M04 A3026 RMK A01 T10041035  RH  079%=      5-min Rain = 0
KTAS 191409Z 31009KT M00/M04 A3026 RMK A01 T10031035  RH  079%=      5-min Rain = 0
KTAS 191410Z 31009KT M00/M04 A3026 RMK A01 T10031035  RH  079%=      5-min Rain = 0
KTAS 191411Z 31009KT M00/M04 A3026 RMK A01 T10031035  RH  079%=      5-min Rain = 0
KTAS 191412Z 31008KT M00/M04 A3026 RMK A01 T10031035  RH  079%=      5-min Rain = 0
KTAS 191413Z 31008KT M00/M04 A3026 RMK A01 T10031036  RH  078%=      5-min Rain = 0
KTAS 191414Z 31008KT M00/M04 A3026 RMK A01 T10031036  RH  078%=      5-min Rain = 0
KTAS 191415Z 31008KT M00/M04 A3026 RMK A01 T10031036  RH  078%=      5-min Rain = 0
KTAS 191416Z 31008KT M00/M04 A3026 RMK A01 T10021036  RH  078%=      5-min Rain = 0
KTAS 191417Z 31007KT M00/M04 A3026 RMK A01 T10021036  RH  078%=      5-min Rain = 0
KTAS 191418Z 31007KT M00/M04 A3026 RMK A01 T10021036  RH  078%=      5-min Rain = 0
KTAS 191419Z 30008KT M00/M04 A3026 RMK A01 T10021036  RH  078%=      5-min Rain = 0
KTAS 191420Z 31008KT M00/M04 A3026 RMK A01 T10021036  RH  078%=      5-min Rain = 0
KTAS 191421Z 31008KT M00/M04 A3026 RMK A01 T10011035  RH  078%=      5-min Rain = 0
KTAS 191422Z 31008KT 00/04 A3026 RMK A01 T00-00-35  RH  078%=      5-min Rain = 0
KTAS 191423Z 31008KT 00/03 A3027 RMK A01 T00000-34  RH  078%=      5-min Rain = 0
KTAS 191424Z 31008KT 00/M03 A3027 RMK A01 T00011034  RH  077%=      5-min Rain = 0
KTAS 191425Z 31007KT 00/M03 A3027 RMK A01 T00011034  RH  077%=      5-min Rain = 0
KTAS 191426Z 31007KT 00/M03 A3027 RMK A01 T00021034  RH  077%=      5-min Rain = 0
KTAS 191427Z 31007KT 00/M03 A3027 RMK A01 T00021033  RH  077%=      5-min Rain = 0
KTAS 191428Z 31007KT 00/M03 A3027 RMK A01 T00031033  RH  077%=      5-min Rain = 0
KTAS 191429Z 31008KT 00/M03 A3027 RMK A01 T00031032  RH  077%=      5-min Rain = 0
KTAS 191430Z 31009KT 00/M03 A3027 RMK A01 T00041032  RH  077%=      5-min Rain = 0
KTAS 191431Z 31009KT 01/M03 A3027 RMK A01 T00051031  RH  077%=      5-min Rain = 0
KTAS 191432Z 31008KT 01/M03 A3027 RMK A01 T00061031  RH  076%=      5-min Rain = 0
KTAS 191433Z 31008KT 01/M03 A3027 RMK A01 T00061031  RH  076%=      5-min Rain = 0
KTAS 191434Z 31010KT 01/M03 A3027 RMK A01 T00071031  RH  076%=      5-min Rain = 0
KTAS 191435Z 31010KT 01/M03 A3027 RMK A01 T00081030  RH  076%=      5-min Rain = 0
KTAS 191436Z 32010KT 01/M03 A3027 RMK A01 T00081030  RH  075%=      5-min Rain = 0
KTAS 191437Z 31010KT 01/M03 A3027 RMK A01 T00091030  RH  075%=      5-min Rain = 0
KTAS 191438Z 31008KT 01/M03 A3027 RMK A01 T00091030  RH  075%=      5-min Rain = 0
KTAS 191439Z 31011KT 01/M03 A3027 RMK A01 T00101030  RH  075%=      5-min Rain = 0
KTAS 191440Z 32010KT 01/M03 A3027 RMK A01 T00101030  RH  074%=      5-min Rain = 0
KTAS 191441Z 32011KT 01/M03 A3027 RMK A01 T00111030  RH  074%=      5-min Rain = 0
KTAS 191442Z 32011KT 01/M03 A3028 RMK A01 T00111030  RH  074%=      5-min Rain = 0
KTAS 191443Z 32012KT 01/M03 A3028 RMK A01 T00111031  RH  074%=      5-min Rain = 0
KTAS 191444Z 31010KT 01/M03 A3028 RMK A01 T00121030  RH  074%=      5-min Rain = 0
KTAS 191445Z 32011KT 01/M03 A3028 RMK A01 T00121030  RH  074%=      5-min Rain = 0
KTAS 191446Z 32010KT 01/M03 A3028 RMK A01 T00131030  RH  073%=      5-min Rain = 0
KTAS 191447Z 32010KT 01/M03 A3028 RMK A01 T00131029  RH  073%=      5-min Rain = 0
KTAS 191448Z 32009KT 01/M03 A3028 RMK A01 T00141029  RH  073%=      5-min Rain = 0
KTAS 191449Z 31010KT 02/M03 A3028 RMK A01 T00151028  RH  073%=      5-min Rain = 0
KTAS 191450Z 31010KT 02/M03 A3028 RMK A01 T00151028  RH  073%=      5-min Rain = 0
KTAS 191451Z 32010KT 02/M03 A3028 RMK A01 T00171028  RH  072%=      5-min Rain = 0
KTAS 191452Z 31011KT 02/M03 A3028 RMK A01 T00171027  RH  072%=      5-min Rain = 0
KTAS 191453Z 31012KT 02/M03 A3028 RMK A01 T00181028  RH  072%=      5-min Rain = 0
KTAS 191454Z 31011KT 02/M03 A3028 RMK A01 T00181029  RH  071%=      5-min Rain = 0
KTAS 191455Z 31011KT 02/M03 A3028 RMK A01 T00181029  RH  071%=      5-min Rain = 0
KTAS 191456Z 31010KT 02/M03 A3028 RMK A01 T00191028  RH  071%=      5-min Rain = 0
KTAS 191457Z 32010KT 02/M03 A3028 RMK A01 T00191028  RH  071%=      5-min Rain = 0
KTAS 191458Z 32010KT 02/M03 A3028 RMK A01 T00201029  RH  070%=      5-min Rain = 0
KTAS 191459Z 31011KT 02/M03 A3028 RMK A01 T00201028  RH  070%=      5-min Rain = 0
KTAS 191500Z 31011KT 02/M03 A3029 RMK A01 T00211028  RH  070%=      5-min Rain = 0
KTAS 191501Z 31010KT 02/M03 A3029 RMK A01 T00211029  RH  070%=      5-min Rain = 0
KTAS 191502Z 31009KT 02/M03 A3029 RMK A01 T00211028  RH  070%=      5-min Rain = 0
KTAS 191503Z 31010KT 02/M03 A3029 RMK A01 T00221028  RH  070%=      5-min Rain = 0
KTAS 191504Z 31009KT 02/M03 A3029 RMK A01 T00221027  RH  070%=      5-min Rain = 0
KTAS 191505Z 31011KT 02/M03 A3029 RMK A01 T00231027  RH  069%=      5-min Rain = 0
KTAS 191506Z 31009KT 02/M03 A3029 RMK A01 T00241027  RH  069%=      5-min Rain = 0
KTAS 191507Z 31010KT 02/M03 A3029 RMK A01 T00241027  RH  069%=      5-min Rain = 0
KTAS 191508Z 31012KT 02/M03 A3029 RMK A01 T00241028  RH  069%=      5-min Rain = 0
KTAS 191509Z 31011KT 02/M03 A3029 RMK A01 T00241028  RH  069%=      5-min Rain = 0
KTAS 191510Z 31011KT 02/M03 A3029 RMK A01 T00241028  RH  069%=      5-min Rain = 0
KTAS 191511Z 32011KT 02/M03 A3029 RMK A01 T00241029  RH  068%=      5-min Rain = 0
KTAS 191512Z 32011KT 02/M03 A3029 RMK A01 T00241028  RH  068%=      5-min Rain = 0
KTAS 191513Z 31012KT 03/M03 A3029 RMK A01 T00251028  RH  068%=      5-min Rain = 0
KTAS 191514Z 32012KT 03/M03 A3029 RMK A01 T00251029  RH  068%=      5-min Rain = 0
KTAS 191515Z 32010KT 03/M03 A3029 RMK A01 T00261027  RH  068%=      5-min Rain = 0
KTAS 191516Z 32009KT 03/M03 A3029 RMK A01 T00281025  RH  068%=      5-min Rain = 0
KTAS 191517Z 32011KT 03/M03 A3029 RMK A01 T00291025  RH  067%=      5-min Rain = 0
KTAS 191518Z 31011KT 03/M03 A3029 RMK A01 T00301026  RH  067%=      5-min Rain = 0
KTAS 191519Z 32010KT 03/M03 A303 RMK A01 T00301026  RH  067%=      5-min Rain = 0
KTAS 191520Z 32013KT 03/M03 A303 RMK A01 T00311025  RH  066%=      5-min Rain = 0
KTAS 191521Z 32011KT 03/M03 A303 RMK A01 T00311027  RH  066%=      5-min Rain = 0
KTAS 191522Z 33009KT 03/M03 A303 RMK A01 T00321026  RH  066%=      5-min Rain = 0
KTAS 191523Z 32010KT 03/M02 A303 RMK A01 T00341024  RH  066%=      5-min Rain = 0
KTAS 191524Z 33010KT 04/M02 A303 RMK A01 T00361022  RH  066%=      5-min Rain = 0
KTAS 191525Z 33010G15KT 04/M02 A303 RMK A01 T00371024  RH  065%=      5-min Rain = 0
KTAS 191526Z 33012KT 04/M03 A303 RMK A01 T00371025  RH  064%=      5-min Rain = 0
KTAS 191527Z 33014KT 04/M03 A303 RMK A01 T00371026  RH  063%=      5-min Rain = 0
KTAS 191528Z 32017KT 04/M03 A303 RMK A01 T00371027  RH  063%=      5-min Rain = 0
KTAS 191529Z 33016KT 04/M03 A303 RMK A01 T00371028  RH  062%=      5-min Rain = 0
KTAS 191530Z 33014KT 04/M03 A303 RMK A01 T00391027  RH  062%=      5-min Rain = 0
KTAS 191531Z 33014KT 04/M03 A303 RMK A01 T00411026  RH  062%=      5-min Rain = 0
KTAS 191532Z 33014KT 04/M03 A303 RMK A01 T00431026  RH  061%=      5-min Rain = 0
KTAS 191533Z 33013G20KT 04/M03 A303 RMK A01 T00431026  RH  061%=      5-min Rain = 0
KTAS 191534Z 33019KT 04/M03 A303 RMK A01 T00431028  RH  060%=      5-min Rain = 0
KTAS 191535Z 34015KT 04/M03 A3031 RMK A01 T00421030  RH  059%=      5-min Rain = 0
KTAS 191536Z 34014KT 04/M03 A3031 RMK A01 T00431028  RH  060%=      5-min Rain = 0
KTAS 191537Z 34017KT 04/M03 A3031 RMK A01 T00441028  RH  059%=      5-min Rain = 0
KTAS 191538Z 33017KT 05/M03 A3031 RMK A01 T00451029  RH  059%=      5-min Rain = 0
KTAS 191539Z 33019KT 05/M03 A3031 RMK A01 T00461030  RH  058%=      5-min Rain = 0
KTAS 191540Z 34019KT 05/M03 A3031 RMK A01 T00461031  RH  057%=      5-min Rain = 0
KTAS 191541Z 34020KT 05/M03 A3031 RMK A01 T00451032  RH  057%=      5-min Rain = 0
KTAS 191542Z 34016KT 05/M03 A3031 RMK A01 T00461032  RH  057%=      5-min Rain = 0
KTAS 191543Z 33017KT 05/M03 A3031 RMK A01 T00481031  RH  057%=      5-min Rain = 0
KTAS 191544Z 33018KT 05/M03 A3031 RMK A01 T00471033  RH  056%=      5-min Rain = 0
KTAS 191545Z 33015KT 05/M03 A3031 RMK A01 T00471031  RH  057%=      5-min Rain = 0
KTAS 191546Z 34014G19KT 05/M03 A3031 RMK A01 T00501029  RH  057%=      5-min Rain = 0
KTAS 191547Z 33017KT 05/M03 A3031 RMK A01 T00511030  RH  056%=      5-min Rain = 0
KTAS 191548Z 34014KT 05/M03 A3031 RMK A01 T00501032  RH  055%=      5-min Rain = 0
KTAS 191549Z 35014KT 05/M03 A3031 RMK A01 T00521031  RH  055%=      5-min Rain = 0
KTAS 191550Z 35017KT 05/M03 A3031 RMK A01 T00521033  RH  054%=      5-min Rain = 0
KTAS 191551Z 34016KT 05/M03 A3031 RMK A01 T00511034  RH  054%=      5-min Rain = 0
KTAS 191552Z 34015KT 05/M03 A3031 RMK A01 T00521033  RH  054%=      5-min Rain = 0
KTAS 191553Z 35016KT 05/M03 A3031 RMK A01 T00521034  RH  054%=      5-min Rain = 0
KTAS 191554Z 35018KT 05/M03 A3031 RMK A01 T00521034  RH  054%=      5-min Rain = 0
KTAS 191555Z 34017KT 05/M04 A3031 RMK A01 T00511036  RH  053%=      5-min Rain = 0
KTAS 191556Z 34017KT 05/M03 A3031 RMK A01 T00521034  RH  054%=      5-min Rain = 0
KTAS 191557Z 34016KT 06/M03 A3031 RMK A01 T00551033  RH  053%=      5-min Rain = 0
KTAS 191558Z 35014KT 05/M03 A3031 RMK A01 T00541034  RH  053%=      5-min Rain = 0
KTAS 191559Z 35015KT 06/M03 A3031 RMK A01 T00551032  RH  053%=      5-min Rain = 0
KTAS 191600Z 34019KT 06/M03 A3031 RMK A01 T00561034  RH  052%=      5-min Rain = 0
KTAS 191601Z 35017KT 06/M04 A3031 RMK A01 T00551036  RH  052%=      5-min Rain = 0
KTAS 191602Z 34017KT 06/M04 A3031 RMK A01 T00551035  RH  052%=      5-min Rain = 0
KTAS 191603Z 34017KT 06/M04 A3031 RMK A01 T00561035  RH  052%=      5-min Rain = 0
KTAS 191604Z 35015KT 06/M03 A3031 RMK A01 T00571034  RH  052%=      5-min Rain = 0
KTAS 191605Z 34018KT 06/M03 A3031 RMK A01 T00591033  RH  052%=      5-min Rain = 0
KTAS 191606Z 35016KT 06/M04 A3031 RMK A01 T00571035  RH  051%=      5-min Rain = 0
KTAS 191607Z 35014G22KT 06/M03 A3031 RMK A01 T00601033  RH  051%=      5-min Rain = 0
KTAS 191608Z 35018KT 06/M03 A3031 RMK A01 T00611034  RH  050%=      5-min Rain = 0
KTAS 191609Z 34018KT 06/M04 A3031 RMK A01 T00591037  RH  050%=      5-min Rain = 0
KTAS 191610Z 34018KT 06/M04 A3031 RMK A01 T00591036  RH  050%=      5-min Rain = 0
KTAS 191611Z 34019KT 06/M04 A3031 RMK A01 T00591037  RH  050%=      5-min Rain = 0
KTAS 191612Z 34016KT 06/M04 A3031 RMK A01 T00601035  RH  051%=      5-min Rain = 0
KTAS 191613Z 34018G23KT 06/M04 A3031 RMK A01 T00611036  RH  050%=      5-min Rain = 0
KTAS 191614Z 34016G21KT 06/M04 A3031 RMK A01 T00611037  RH  050%=      5-min Rain = 0
KTAS 191615Z 34014KT 06/M03 A3031 RMK A01 T00631034  RH  050%=      5-min Rain = 0
KTAS 191616Z 34018KT 07/M03 A3031 RMK A01 T00651034  RH  049%=      5-min Rain = 0
KTAS 191617Z 33019KT 06/M04 A3031 RMK A01 T00631037  RH  049%=      5-min Rain = 0
KTAS 191618Z 33017KT 06/M04 A3031 RMK A01 T00621037  RH  049%=      5-min Rain = 0
KTAS 191619Z 35017KT 06/M04 A3031 RMK A01 T00631036  RH  049%=      5-min Rain = 0
KTAS 191620Z 35019G24KT 06/M04 A3031 RMK A01 T00621039  RH  048%=      5-min Rain = 0
KTAS 191621Z 35019KT 06/M04 A3031 RMK A01 T00611040  RH  048%=      5-min Rain = 0
KTAS 191622Z 34019KT 06/M04 A3031 RMK A01 T00621039  RH  049%=      5-min Rain = 0
KTAS 191623Z 34019KT 06/M04 A3031 RMK A01 T00621039  RH  048%=      5-min Rain = 0
KTAS 191624Z 34017G22KT 06/M04 A3031 RMK A01 T00641038  RH  048%=      5-min Rain = 0
KTAS 191625Z 34017KT 07/M04 A3031 RMK A01 T00671038  RH  047%=      5-min Rain = 0
KTAS 191626Z 35018KT 07/M04 A3031 RMK A01 T00671039  RH  047%=      5-min Rain = 0
KTAS 191627Z 35020KT 07/M04 A3031 RMK A01 T00661041  RH  046%=      5-min Rain = 0
KTAS 191628Z 35019KT 06/M04 A3031 RMK A01 T00631042  RH  047%=      5-min Rain = 0
KTAS 191629Z 34018KT 06/M04 A3031 RMK A01 T00641040  RH  047%=      5-min Rain = 0
KTAS 191630Z 34018KT 07/M04 A3031 RMK A01 T00651040  RH  047%=      5-min Rain = 0
KTAS 191631Z 35018G23KT 07/M04 A3031 RMK A01 T00661040  RH  047%=      5-min Rain = 0
KTAS 191632Z 34017G23KT 07/M04 A3032 RMK A01 T00691037  RH  047%=      5-min Rain = 0
KTAS 191633Z 35018KT 07/M04 A3031 RMK A01 T00691040  RH  046%=      5-min Rain = 0
KTAS 191634Z 34019KT 07/M04 A3032 RMK A01 T00691039  RH  046%=      5-min Rain = 0
KTAS 191635Z 34015G21KT 07/M04 A3031 RMK A01 T00661041  RH  046%=      5-min Rain = 0
KTAS 191636Z 34016KT 07/M04 A3032 RMK A01 T00671039  RH  047%=      5-min Rain = 0
KTAS 191637Z 35017KT 07/M04 A3031 RMK A01 T00661039  RH  047%=      5-min Rain = 0
KTAS 191638Z 35018KT 07/M04 A3032 RMK A01 T00681038  RH  047%=      5-min Rain = 0
KTAS 191639Z 35019G24KT 07/M04 A3032 RMK A01 T00701039  RH  046%=      5-min Rain = 0
KTAS 191640Z 35021G28KT 07/M04 A3032 RMK A01 T00681041  RH  046%=      5-min Rain = 0
KTAS 191641Z 35019KT 07/M04 A3032 RMK A01 T00661042  RH  046%=      5-min Rain = 0
KTAS 191642Z 35016G22KT 07/M04 A3032 RMK A01 T00681037  RH  047%=      5-min Rain = 0
KTAS 191643Z 35017G23KT 07/M04 A3032 RMK A01 T00721037  RH  046%=      5-min Rain = 0
KTAS 191644Z 34017KT 07/M04 A3032 RMK A01 T00721038  RH  045%=      5-min Rain = 0
KTAS 191645Z 35018KT 07/M04 A3032 RMK A01 T00711039  RH  045%=      5-min Rain = 0
KTAS 191646Z 36017KT 07/M04 A3032 RMK A01 T00711039  RH  046%=      5-min Rain = 0
KTAS 191647Z 35018KT 07/M04 A3032 RMK A01 T00701038  RH  046%=      5-min Rain = 0
KTAS 191648Z 35018KT 07/M04 A3032 RMK A01 T00721037  RH  046%=      5-min Rain = 0
KTAS 191649Z 35018KT 07/M04 A3032 RMK A01 T00731038  RH  045%=      5-min Rain = 0
KTAS 191650Z 34017KT 07/M04 A3032 RMK A01 T00731039  RH  045%=      5-min Rain = 0
KTAS 191651Z 34017KT 07/M04 A3032 RMK A01 T00721038  RH  045%=      5-min Rain = 0
KTAS 191652Z 36018KT 08/M04 A3032 RMK A01 T00751037  RH  045%=      5-min Rain = 0
KTAS 191653Z 35017KT 08/M04 A3032 RMK A01 T00751037  RH  045%=      5-min Rain = 0
KTAS 191654Z 35016KT 08/M04 A3032 RMK A01 T00761037  RH  044%=      5-min Rain = 0
KTAS 191655Z 34016G23KT 08/M04 A3032 RMK A01 T00751038  RH  045%=      5-min Rain = 0
KTAS 191656Z 34018G25KT 08/M04 A3032 RMK A01 T00751038  RH  045%=      5-min Rain = 0
KTAS 191657Z 35020G25KT 08/M04 A3032 RMK A01 T00751040  RH  044%=      5-min Rain = 0
KTAS 191658Z 35018KT 08/M04 A3032 RMK A01 T00751039  RH  044%=      5-min Rain = 0
KTAS 191659Z 35019KT 07/M04 A3032 RMK A01 T00731040  RH  044%=      5-min Rain = 0
KTAS 191700Z 35019KT 07/M04 A3032 RMK A01 T00741039  RH  044%=      5-min Rain = 0
KTAS 191701Z 34017KT 07/M04 A3032 RMK A01 T00731039  RH  045%=      5-min Rain = 0
KTAS 191702Z 34015G20KT 08/M04 A3032 RMK A01 T00751038  RH  045%=      5-min Rain = 0
KTAS 191703Z 34020KT 08/M04 A3032 RMK A01 T00781039  RH  044%=      5-min Rain = 0
KTAS 191704Z 34019KT 08/M04 A3032 RMK A01 T00771041  RH  043%=      5-min Rain = 0
KTAS 191705Z 34018KT 08/M04 A3032 RMK A01 T00751041  RH  044%=      5-min Rain = 0
KTAS 191706Z 33019KT 08/M04 A3032 RMK A01 T00771039  RH  044%=      5-min Rain = 0
KTAS 191707Z 33018KT 08/M04 A3032 RMK A01 T00771039  RH  044%=      5-min Rain = 0
KTAS 191708Z 33014KT 08/M04 A3032 RMK A01 T00771039  RH  044%=      5-min Rain = 0
KTAS 191709Z 35014KT 08/M04 A3032 RMK A01 T00791036  RH  044%=      5-min Rain = 0
KTAS 191710Z 34018KT 08/M04 A3032 RMK A01 T00821037  RH  043%=      5-min Rain = 0
KTAS 191711Z 35017KT 08/M04 A3032 RMK A01 T00801039  RH  043%=      5-min Rain = 0
KTAS 191712Z 36018KT 08/M04 A3032 RMK A01 T00831036  RH  043%=      5-min Rain = 0
KTAS 191713Z 35017KT 08/M04 A3032 RMK A01 T00821038  RH  042%=      5-min Rain = 0
KTAS 191714Z 34016KT 08/M04 A3032 RMK A01 T00791039  RH  043%=      5-min Rain = 0
KTAS 191715Z 34014KT 08/M04 A3032 RMK A01 T00781038  RH  044%=      5-min Rain = 0
KTAS 191716Z 34013KT 08/M04 A3032 RMK A01 T00801036  RH  044%=      5-min Rain = 0
KTAS 191717Z 34015KT 08/M04 A3032 RMK A01 T00831037  RH  043%=      5-min Rain = 0
KTAS 191718Z 35016KT 08/M04 A3032 RMK A01 T00841038  RH  042%=      5-min Rain = 0
KTAS 191719Z 35016G21KT 08/M04 A3032 RMK A01 T00831039  RH  042%=      5-min Rain = 0
KTAS 191720Z 35018KT 09/M04 A3032 RMK A01 T00851038  RH  042%=      5-min Rain = 0
KTAS 191721Z 35016KT 09/M04 A3032 RMK A01 T00861038  RH  042%=      5-min Rain = 0
KTAS 191722Z 34019KT 09/M04 A3032 RMK A01 T00851040  RH  041%=      5-min Rain = 0
KTAS 191723Z 34015KT 08/M04 A3032 RMK A01 T00831040  RH  042%=      5-min Rain = 0
KTAS 191724Z 35015KT 08/M04 A3032 RMK A01 T00831039  RH  042%=      5-min Rain = 0
KTAS 191725Z 35015KT 08/M04 A3032 RMK A01 T00841038  RH  042%=      5-min Rain = 0
KTAS 191726Z 34018KT 08/M04 A3032 RMK A01 T00831039  RH  042%=      5-min Rain = 0
KTAS 191727Z 35020KT 08/M04 A3032 RMK A01 T00831040  RH  042%=      5-min Rain = 0
KTAS 191728Z 35018KT 08/M04 A3032 RMK A01 T00821041  RH  042%=      5-min Rain = 0
KTAS 191729Z 35017KT 08/M04 A3032 RMK A01 T00821041  RH  042%=      5-min Rain = 0
KTAS 191730Z 36018KT 08/M04 A3032 RMK A01 T00841040  RH  041%=      5-min Rain = 0
KTAS 191731Z 35016KT 08/M04 A3032 RMK A01 T00821041  RH  042%=      5-min Rain = 0
KTAS 191732Z 00015KT 09/M04 A3032 RMK A01 T00851037  RH  042%=      5-min Rain = 0
KTAS 191733Z 00014KT 09/M04 A3032 RMK A01 T00861037  RH  042%=      5-min Rain = 0
KTAS 191734Z 36013KT 09/M04 A3032 RMK A01 T00901035  RH  041%=      5-min Rain = 0
KTAS 191735Z 35013G18KT 09/M03 A3032 RMK A01 T00941034  RH  040%=      5-min Rain = 0
KTAS 191736Z 35016KT 09/M04 A3032 RMK A01 T00921040  RH  039%=      5-min Rain = 0
KTAS 191737Z 36017KT 09/M04 A3032 RMK A01 T00871041  RH  040%=      5-min Rain = 0
KTAS 191738Z 01019KT 09/M04 A3032 RMK A01 T00861042  RH  040%=      5-min Rain = 0
KTAS 191739Z 00018KT 09/M04 A3032 RMK A01 T00851042  RH  040%=      5-min Rain = 0
KTAS 191740Z 35017KT 09/M04 A3032 RMK A01 T00871040  RH  040%=      5-min Rain = 0
KTAS 191741Z 33019KT 09/M04 A3032 RMK A01 T00871042  RH  040%=      5-min Rain = 0
KTAS 191742Z 34019KT 09/M04 A3032 RMK A01 T00871040  RH  040%=      5-min Rain = 0
KTAS 191743Z 34019KT 09/M04 A3032 RMK A01 T00881041  RH  040%=      5-min Rain = 0
KTAS 191744Z 34019KT 09/M04 A3032 RMK A01 T00871043  RH  040%=      5-min Rain = 0
KTAS 191745Z 35017KT 09/M04 A3032 RMK A01 T00881040  RH  040%=      5-min Rain = 0
KTAS 191746Z 36018KT 09/M04 A3032 RMK A01 T00911041  RH  039%=      5-min Rain = 0
KTAS 191747Z 35020KT 09/M04 A3032 RMK A01 T00901042  RH  039%=      5-min Rain = 0
KTAS 191748Z 36018KT 09/M05 A3032 RMK A01 T00871045  RH  039%=      5-min Rain = 0
KTAS 191749Z 00016G21KT 09/M04 A3032 RMK A01 T00861042  RH  040%=      5-min Rain = 0
KTAS 191750Z 35019KT 09/M04 A3032 RMK A01 T00901040  RH  040%=      5-min Rain = 0
KTAS 191751Z 35019KT 09/M04 A3032 RMK A01 T00901042  RH  039%=      5-min Rain = 0
KTAS 191752Z 35018KT 09/M04 A3032 RMK A01 T00861043  RH  040%=      5-min Rain = 0
KTAS 191753Z 34017KT 09/M04 A3032 RMK A01 T00851041  RH  041%=      5-min Rain = 0
KTAS 191754Z 34018KT 09/M04 A3032 RMK A01 T00871040  RH  040%=      5-min Rain = 0
KTAS 191755Z 34017KT 09/M04 A3032 RMK A01 T00881041  RH  040%=      5-min Rain = 0
KTAS 191756Z 34016KT 09/M04 A3032 RMK A01 T00881040  RH  040%=      5-min Rain = 0
KTAS 191757Z 00014KT 09/M04 A3032 RMK A01 T00891039  RH  040%=      5-min Rain = 0
KTAS 191758Z 35015G20KT 09/M04 A3032 RMK A01 T00901038  RH  040%=      5-min Rain = 0
KTAS 191759Z 36017KT 09/M04 A3032 RMK A01 T00911040  RH  040%=      5-min Rain = 0
KTAS 191800Z 35018KT 09/M04 A3032 RMK A01 T00911039  RH  040%=      5-min Rain = 0
KTAS 191801Z 34015KT 09/M04 A3032 RMK A01 T00911040  RH  039%=      5-min Rain = 0
KTAS 191802Z 35015KT 09/M04 A3032 RMK A01 T00931039  RH  039%=      5-min Rain = 0
KTAS 191803Z 35016KT 09/M04 A3032 RMK A01 T00941038  RH  039%=      5-min Rain = 0
KTAS 191804Z 34015KT 09/M04 A3032 RMK A01 T00931040  RH  039%=      5-min Rain = 0
KTAS 191805Z 35014KT 09/M04 A3032 RMK A01 T00921039  RH  040%=      5-min Rain = 0
KTAS 191806Z 00015KT 09/M04 A3032 RMK A01 T00921038  RH  040%=      5-min Rain = 0
KTAS 191807Z 36014KT 09/M04 A3032 RMK A01 T00921038  RH  040%=      5-min Rain = 0
KTAS 191808Z 35015KT 10/M04 A3032 RMK A01 T00951035  RH  040%=      5-min Rain = 0
KTAS 191809Z 36016KT 10/M04 A3032 RMK A01 T00971035  RH  039%=      5-min Rain = 0
KTAS 191810Z 35015KT 10/M04 A3033 RMK A01 T00961037  RH  039%=      5-min Rain = 0
KTAS 191811Z 34013KT 10/M04 A3033 RMK A01 T00971035  RH  039%=      5-min Rain = 0
KTAS 191812Z 35013KT 10/M04 A3032 RMK A01 T00981036  RH  039%=      5-min Rain = 0
KTAS 191813Z 35016KT 10/M04 A3032 RMK A01 T00961038  RH  039%=      5-min Rain = 0
KTAS 191814Z 36014KT 10/M04 A3032 RMK A01 T00961036  RH  039%=      5-min Rain = 0
KTAS 191815Z 35015KT 10/M04 A3032 RMK A01 T00981037  RH  039%=      5-min Rain = 0
KTAS 191816Z 35016KT 10/M04 A3032 RMK A01 T00981036  RH  039%=      5-min Rain = 0
KTAS 191817Z 35015KT 10/M04 A3032 RMK A01 T00961038  RH  039%=      5-min Rain = 0
KTAS 191818Z 35014KT 09/M04 A3032 RMK A01 T00941039  RH  039%=      5-min Rain = 0
KTAS 191819Z 34012KT 09/M04 A3032 RMK A01 T00941037  RH  039%=      5-min Rain = 0
KTAS 191820Z 33013KT 09/M04 A3032 RMK A01 T00931038  RH  039%=      5-min Rain = 0
KTAS 191821Z 33014KT 09/M04 A3032 RMK A01 T00941037  RH  040%=      5-min Rain = 0
KTAS 191822Z 32012KT 10/M04 A3032 RMK A01 T00951035  RH  040%=      5-min Rain = 0
KTAS 191823Z 32015G20KT 10/M04 A3032 RMK A01 T00971037  RH  039%=      5-min Rain = 0
KTAS 191824Z 34013KT 10/M04 A3032 RMK A01 T00961036  RH  039%=      5-min Rain = 0
KTAS 191825Z 34016KT 10/M04 A3032 RMK A01 T00971037  RH  039%=      5-min Rain = 0
KTAS 191826Z 34014KT 10/M04 A3032 RMK A01 T00951037  RH  039%=      5-min Rain = 0
KTAS 191827Z 34010KT 09/M04 A3032 RMK A01 T00941036  RH  040%=      5-min Rain = 0
KTAS 191828Z 35011KT 10/M03 A3032 RMK A01 T00991032  RH  039%=      5-min Rain = 0
KTAS 191829Z 34013KT 10/M04 A3032 RMK A01 T00981036  RH  039%=      5-min Rain = 0
KTAS 191830Z 33014KT 10/M04 A3031 RMK A01 T00991036  RH  039%=      5-min Rain = 0
KTAS 191831Z 34015KT 10/M04 A3031 RMK A01 T00981038  RH  038%=      5-min Rain = 0
KTAS 191832Z 33014KT 10/M04 A3031 RMK A01 T01011036  RH  038%=      5-min Rain = 0
KTAS 191833Z 33016KT 10/M04 A3031 RMK A01 T01031037  RH  037%=      5-min Rain = 0
KTAS 191834Z 34015KT 10/M04 A3031 RMK A01 T00991039  RH  038%=      5-min Rain = 0
KTAS 191835Z 33015KT 10/M04 A3031 RMK A01 T00961039  RH  038%=      5-min Rain = 0
KTAS 191836Z 34015KT 10/M04 A3031 RMK A01 T00951039  RH  039%=      5-min Rain = 0
KTAS 191837Z 33014KT 10/M04 A3031 RMK A01 T00971037  RH  039%=      5-min Rain = 0
KTAS 191838Z 33017KT 10/M04 A3031 RMK A01 T00991040  RH  037%=      5-min Rain = 0
KTAS 191839Z 34015KT 10/M04 A3031 RMK A01 T00971041  RH  038%=      5-min Rain = 0
KTAS 191840Z 33013KT 10/M04 A3031 RMK A01 T00991039  RH  038%=      5-min Rain = 0
KTAS 191841Z 32016KT 10/M04 A3031 RMK A01 T01001039  RH  037%=      5-min Rain = 0
KTAS 191842Z 34017KT 10/M04 A3031 RMK A01 T01011038  RH  037%=      5-min Rain = 0
KTAS 191843Z 33016KT 10/M04 A3031 RMK A01 T00991040  RH  037%=      5-min Rain = 0
KTAS 191844Z 34011KT 10/M04 A3031 RMK A01 T00971038  RH  038%=      5-min Rain = 0
KTAS 191845Z 33016KT 10/M04 A3031 RMK A01 T01011036  RH  038%=      5-min Rain = 0
KTAS 191846Z 33016KT 10/M04 A3031 RMK A01 T01021039  RH  037%=      5-min Rain = 0
KTAS 191847Z 33019KT 10/M04 A3031 RMK A01 T01001040  RH  037%=      5-min Rain = 0
KTAS 191848Z 33018KT 10/M04 A3031 RMK A01 T00981041  RH  037%=      5-min Rain = 0
KTAS 191849Z 32017KT 10/M04 A3031 RMK A01 T00991040  RH  037%=      5-min Rain = 0
KTAS 191850Z 33017KT 10/M04 A3031 RMK A01 T00991039  RH  038%=      5-min Rain = 0
KTAS 191851Z 34015KT 10/M04 A3031 RMK A01 T00971040  RH  038%=      5-min Rain = 0
KTAS 191852Z 34012KT 10/M04 A3031 RMK A01 T01021035  RH  038%=      5-min Rain = 0
KTAS 191853Z 34015KT 10/M04 A3031 RMK A01 T01021039  RH  037%=      5-min Rain = 0
KTAS 191854Z 33015KT 10/M04 A3031 RMK A01 T00981040  RH  038%=      5-min Rain = 0
KTAS 191855Z 34014KT 10/M04 A3031 RMK A01 T00971039  RH  038%=      5-min Rain = 0
KTAS 191856Z 35012KT 10/M04 A3031 RMK A01 T01001035  RH  038%=      5-min Rain = 0
KTAS 191857Z 35014KT 11/M04 A3031 RMK A01 T01051036  RH  037%=      5-min Rain = 0
KTAS 191858Z 35013KT 10/M04 A3031 RMK A01 T01021038  RH  037%=      5-min Rain = 0
KTAS 191859Z 34012KT 10/M04 A303 RMK A01 T01031035  RH  038%=      5-min Rain = 0
KTAS 191900Z 34015KT 11/M04 A303 RMK A01 T01051036  RH  037%=      5-min Rain = 0
KTAS 191901Z 34016KT 11/M04 A303 RMK A01 T01051038  RH  036%=      5-min Rain = 0
KTAS 191902Z 36014KT 11/M04 A303 RMK A01 T01061036  RH  037%=      5-min Rain = 0
KTAS 191903Z 35013KT 11/M04 A3031 RMK A01 T01081036  RH  036%=      5-min Rain = 0
KTAS 191904Z 34013KT 11/M04 A3031 RMK A01 T01101035  RH  036%=      5-min Rain = 0
KTAS 191905Z 35015KT 11/M04 A303 RMK A01 T01091037  RH  036%=      5-min Rain = 0
KTAS 191906Z 00013KT 11/M04 A303 RMK A01 T01081036  RH  036%=      5-min Rain = 0
KTAS 191907Z 36014KT 11/M04 A303 RMK A01 T01061037  RH  036%=      5-min Rain = 0
KTAS 191908Z 36011KT 10/M04 A303 RMK A01 T01021039  RH  037%=      5-min Rain = 0
KTAS 191909Z 35013KT 10/M04 A303 RMK A01 T01001036  RH  038%=      5-min Rain = 0
KTAS 191910Z 35014KT 10/M03 A303 RMK A01 T01031033  RH  038%=      5-min Rain = 0
KTAS 191911Z 34013G18KT 11/M04 A303 RMK A01 T01051036  RH  037%=      5-min Rain = 0
KTAS 191912Z 33011KT 10/M03 A303 RMK A01 T01031034  RH  038%=      5-min Rain = 0
KTAS 191913Z 33015KT 11/M03 A303 RMK A01 T01071034  RH  037%=      5-min Rain = 0
KTAS 191914Z 33016KT 11/M04 A303 RMK A01 T01091035  RH  036%=      5-min Rain = 0
KTAS 191915Z 33013KT 11/M04 A303 RMK A01 T01071037  RH  036%=      5-min Rain = 0
KTAS 191916Z 33015KT 11/M03 A303 RMK A01 T01071034  RH  037%=      5-min Rain = 0
KTAS 191917Z 33013KT 11/M04 A303 RMK A01 T01051036  RH  037%=      5-min Rain = 0
KTAS 191918Z 34012KT 11/M03 A303 RMK A01 T01081033  RH  037%=      5-min Rain = 0
KTAS 191919Z 35011KT 11/M03 A303 RMK A01 T01101034  RH  036%=      5-min Rain = 0
KTAS 191920Z 33010KT 11/M04 A303 RMK A01 T01071037  RH  036%=      5-min Rain = 0
KTAS 191921Z 32012KT 11/M03 A303 RMK A01 T01081034  RH  037%=      5-min Rain = 0
KTAS 191922Z 34018KT 11/M04 A303 RMK A01 T01081035  RH  037%=      5-min Rain = 0
KTAS 191923Z 35017KT 11/M04 A303 RMK A01 T01071037  RH  036%=      5-min Rain = 0
KTAS 191924Z 33017KT 11/M04 A3029 RMK A01 T01071036  RH  036%=      5-min Rain = 0
KTAS 191925Z 33017KT 11/M04 A3029 RMK A01 T01081035  RH  036%=      5-min Rain = 0
KTAS 191926Z 33015KT 11/M04 A3029 RMK A01 T01081036  RH  036%=      5-min Rain = 0
KTAS 191927Z 33014KT 11/M04 A3029 RMK A01 T01091035  RH  036%=      5-min Rain = 0
KTAS 191928Z 33014KT 11/M04 A3029 RMK A01 T01091037  RH  036%=      5-min Rain = 0
KTAS 191929Z 32014KT 11/M04 A3029 RMK A01 T01091037  RH  036%=      5-min Rain = 0
KTAS 191930Z 34014KT 11/M04 A3029 RMK A01 T01091036  RH  036%=      5-min Rain = 0
KTAS 191931Z 34011KT 11/M04 A3029 RMK A01 T01101036  RH  036%=      5-min Rain = 0
KTAS 191932Z 34016KT 11/M04 A3029 RMK A01 T01111035  RH  036%=      5-min Rain = 0
KTAS 191933Z 33014KT 11/M04 A3029 RMK A01 T01111037  RH  035%=      5-min Rain = 0
KTAS 191934Z 32015KT 11/M04 A3029 RMK A01 T01121036  RH  035%=      5-min Rain = 0
KTAS 191935Z 32014KT 11/M04 A3029 RMK A01 T01131036  RH  035%=      5-min Rain = 0
KTAS 191936Z 32014KT 11/M04 A3029 RMK A01 T01111037  RH  035%=      5-min Rain = 0
KTAS 191937Z 34016KT 11/M04 A3029 RMK A01 T01131035  RH  035%=      5-min Rain = 0
KTAS 191938Z 35016G22KT 11/M04 A3029 RMK A01 T01141037  RH  035%=      5-min Rain = 0
KTAS 191939Z 33014KT 12/M04 A3029 RMK A01 T01151035  RH  035%=      5-min Rain = 0
KTAS 191940Z 34015G20KT 12/M04 A3029 RMK A01 T01171035  RH  034%=      5-min Rain = 0
KTAS 191941Z 34018KT 11/M04 A3029 RMK A01 T01141038  RH  034%=      5-min Rain = 0
KTAS 191942Z 34018KT 11/M04 A3029 RMK A01 T01111039  RH  035%=      5-min Rain = 0
KTAS 191943Z 34018KT 11/M04 A3029 RMK A01 T01121038  RH  035%=      5-min Rain = 0
KTAS 191944Z 34018KT 11/M04 A3029 RMK A01 T01101039  RH  035%=      5-min Rain = 0
KTAS 191945Z 33017KT 11/M04 A3029 RMK A01 T01101039  RH  035%=      5-min Rain = 0
KTAS 191946Z 34017KT 11/M04 A3029 RMK A01 T01091040  RH  035%=      5-min Rain = 0
KTAS 191947Z 34014KT 11/M04 A3029 RMK A01 T01071040  RH  035%=      5-min Rain = 0
KTAS 191948Z 34013KT 11/M04 A3029 RMK A01 T01071038  RH  036%=      5-min Rain = 0
KTAS 191949Z 34017KT 12/M04 A3029 RMK A01 T01151036  RH  035%=      5-min Rain = 0
KTAS 191950Z 33011KT 12/M04 A3029 RMK A01 T01161038  RH  034%=      5-min Rain = 0
KTAS 191951Z 34012KT 12/M04 A3028 RMK A01 T01151038  RH  034%=      5-min Rain = 0
KTAS 191952Z 34014G20KT 12/M04 A3029 RMK A01 T01161036  RH  034%=      5-min Rain = 0
KTAS 191953Z 34018KT 11/M04 A3029 RMK A01 T01131040  RH  034%=      5-min Rain = 0
KTAS 191954Z 34016KT 11/M04 A3029 RMK A01 T01081039  RH  035%=      5-min Rain = 0
KTAS 191955Z 34017KT 11/M04 A3028 RMK A01 T01101037  RH  035%=      5-min Rain = 0
KTAS 191956Z 35015KT 11/M04 A3028 RMK A01 T01101037  RH  035%=      5-min Rain = 0
KTAS 191957Z 36014KT 11/M04 A3028 RMK A01 T01121036  RH  035%=      5-min Rain = 0
KTAS 191958Z 33015KT 11/M04 A3028 RMK A01 T01121037  RH  035%=      5-min Rain = 0
KTAS 191959Z 33014KT 11/M04 A3028 RMK A01 T01111038  RH  035%=      5-min Rain = 0
KTAS 192000Z 35014G20KT 11/M04 A3028 RMK A01 T01131036  RH  035%=      5-min Rain = 0
KTAS 192001Z 34016KT 12/M04 A3028 RMK A01 T01151038  RH  034%=      5-min Rain = 0
KTAS 192002Z 34015KT 11/M04 A3028 RMK A01 T01111040  RH  034%=      5-min Rain = 0
KTAS 192003Z 34013KT 11/M04 A3028 RMK A01 T01111038  RH  035%=      5-min Rain = 0
KTAS 192004Z 34011KT 11/M04 A3028 RMK A01 T01131037  RH  035%=      5-min Rain = 0
KTAS 192005Z 34011KT 11/M04 A3028 RMK A01 T01131037  RH  035%=      5-min Rain = 0
KTAS 192006Z 33010G15KT 12/M03 A3028 RMK A01 T01171034  RH  035%=      5-min Rain = 0
KTAS 192007Z 32014KT 12/M04 A3028 RMK A01 T01201036  RH  033%=      5-min Rain = 0
KTAS 192008Z 31014KT 12/M04 A3028 RMK A01 T01171041  RH  033%=      5-min Rain = 0
KTAS 192009Z 32010KT 12/M04 A3027 RMK A01 T01151039  RH  034%=      5-min Rain = 0
KTAS 192010Z 33016KT 12/M04 A3027 RMK A01 T01191037  RH  034%=      5-min Rain = 0
KTAS 192011Z 34017KT 12/M04 A3027 RMK A01 T01181038  RH  033%=      5-min Rain = 0
KTAS 192012Z 34015KT 12/M04 A3027 RMK A01 T01161040  RH  033%=      5-min Rain = 0
KTAS 192013Z 33012G17KT 12/M04 A3027 RMK A01 T01151039  RH  034%=      5-min Rain = 0
KTAS 192014Z 33011KT 11/M04 A3027 RMK A01 T01141039  RH  034%=      5-min Rain = 0
KTAS 192015Z 32012KT 11/M04 A3027 RMK A01 T01141038  RH  034%=      5-min Rain = 0
KTAS 192016Z 32011KT 11/M04 A3027 RMK A01 T01131038  RH  034%=      5-min Rain = 0
KTAS 192017Z 34014KT 12/M04 A3027 RMK A01 T01151037  RH  034%=      5-min Rain = 0
KTAS 192018Z 35014KT 12/M04 A3027 RMK A01 T01181037  RH  033%=      5-min Rain = 0
KTAS 192019Z 35017KT 12/M04 A3027 RMK A01 T01171039  RH  033%=      5-min Rain = 0
KTAS 192020Z 34016KT 12/M04 A3027 RMK A01 T01161038  RH  034%=      5-min Rain = 0
KTAS 192021Z 34014KT 12/M04 A3027 RMK A01 T01151039  RH  034%=      5-min Rain = 0
KTAS 192022Z 33011KT 12/M04 A3027 RMK A01 T01161036  RH  034%=      5-min Rain = 0
KTAS 192023Z 33015KT 12/M04 A3027 RMK A01 T01211037  RH  033%=      5-min Rain = 0
KTAS 192024Z 33012KT 12/M04 A3027 RMK A01 T01181038  RH  033%=      5-min Rain = 0
KTAS 192025Z 32013KT 12/M04 A3027 RMK A01 T01201038  RH  033%=      5-min Rain = 0
KTAS 192026Z 33014KT 12/M04 A3027 RMK A01 T01171039  RH  033%=      5-min Rain = 0
KTAS 192027Z 34013KT 12/M04 A3026 RMK A01 T01201036  RH  033%=      5-min Rain = 0
KTAS 192028Z 34014KT 12/M04 A3026 RMK A01 T01181040  RH  033%=      5-min Rain = 0
KTAS 192029Z 33014KT 11/M04 A3026 RMK A01 T01141040  RH  034%=      5-min Rain = 0
KTAS 192030Z 34014KT 12/M04 A3026 RMK A01 T01161037  RH  034%=      5-min Rain = 0
KTAS 192031Z 33014KT 12/M04 A3026 RMK A01 T01161038  RH  034%=      5-min Rain = 0
KTAS 192032Z 34014KT 12/M04 A3026 RMK A01 T01161037  RH  034%=      5-min Rain = 0
KTAS 192033Z 34012KT 12/M04 A3026 RMK A01 T01201036  RH  034%=      5-min Rain = 0
KTAS 192034Z 33013KT 12/M04 A3026 RMK A01 T01201036  RH  033%=      5-min Rain = 0
KTAS 192035Z 35016KT 12/M04 A3026 RMK A01 T01181038  RH  033%=      5-min Rain = 0
KTAS 192036Z 33015KT 12/M04 A3026 RMK A01 T01171038  RH  033%=      5-min Rain = 0
KTAS 192037Z 36016KT 12/M04 A3026 RMK A01 T01201036  RH  033%=      5-min Rain = 0
KTAS 192038Z 36012KT 12/M04 A3026 RMK A01 T01221037  RH  033%=      5-min Rain = 0
KTAS 192039Z 34018KT 12/M04 A3026 RMK A01 T01191040  RH  033%=      5-min Rain = 0
KTAS 192040Z 32014KT 12/M04 A3026 RMK A01 T01191041  RH  033%=      5-min Rain = 0
KTAS 192041Z 32014KT 12/M04 A3026 RMK A01 T01191042  RH  032%=      5-min Rain = 0
KTAS 192042Z 33015KT 12/M04 A3026 RMK A01 T01211039  RH  033%=      5-min Rain = 0
KTAS 192043Z 34015KT 12/M04 A3026 RMK A01 T01211040  RH  032%=      5-min Rain = 0
KTAS 192044Z 33015KT 12/M04 A3026 RMK A01 T01211040  RH  032%=      5-min Rain = 0
KTAS 192045Z 34011KT 12/M04 A3026 RMK A01 T01201040  RH  033%=      5-min Rain = 0
KTAS 192046Z 34012KT 12/M04 A3026 RMK A01 T01181041  RH  032%=      5-min Rain = 0
KTAS 192047Z 35012KT 12/M04 A3026 RMK A01 T01171041  RH  033%=      5-min Rain = 0
KTAS 192048Z 34018KT 12/M04 A3026 RMK A01 T01181041  RH  033%=      5-min Rain = 0
KTAS 192049Z 33013G18KT 12/M04 A3026 RMK A01 T01171042  RH  033%=      5-min Rain = 0
KTAS 192050Z 34009KT 12/M04 A3026 RMK A01 T01161040  RH  033%=      5-min Rain = 0
KTAS 192051Z 34012KT 12/M04 A3026 RMK A01 T01231036  RH  033%=      5-min Rain = 0
KTAS 192052Z 33010KT 12/M04 A3026 RMK A01 T01241040  RH  031%=      5-min Rain = 0
KTAS 192053Z 33010KT 12/M04 A3026 RMK A01 T01201040  RH  032%=      5-min Rain = 0
KTAS 192054Z 33018KT 12/M04 A3026 RMK A01 T01231040  RH  032%=      5-min Rain = 0
KTAS 192055Z 33016KT 12/M04 A3026 RMK A01 T01211044  RH  031%=      5-min Rain = 0
KTAS 192056Z 34013KT 12/M04 A3026 RMK A01 T01211042  RH  032%=      5-min Rain = 0
KTAS 192057Z 32012KT 12/M04 A3026 RMK A01 T01211042  RH  032%=      5-min Rain = 0
KTAS 192058Z 32010KT 12/M04 A3026 RMK A01 T01201042  RH  032%=      5-min Rain = 0
KTAS 192059Z 33011KT 12/M04 A3026 RMK A01 T01221040  RH  032%=      5-min Rain = 0
KTAS 192100Z 32012KT 13/M04 A3026 RMK A01 T01251039  RH  032%=      5-min Rain = 0
KTAS 192101Z 35010KT 13/M04 A3026 RMK A01 T01261040  RH  031%=      5-min Rain = 0
KTAS 192102Z 35014KT 12/M04 A3026 RMK A01 T01231042  RH  031%=      5-min Rain = 0
KTAS 192103Z 34015KT 12/M04 A3026 RMK A01 T01201042  RH  032%=      5-min Rain = 0
KTAS 192104Z 34011KT 12/M04 A3026 RMK A01 T01201042  RH  032%=      5-min Rain = 0
KTAS 192105Z 33011KT 12/M04 A3026 RMK A01 T01221039  RH  032%=      5-min Rain = 0
KTAS 192106Z 31011KT 12/M04 A3026 RMK A01 T01231042  RH  031%=      5-min Rain = 0
KTAS 192107Z 32012KT 12/M04 A3026 RMK A01 T01211044  RH  031%=      5-min Rain = 0
KTAS 192108Z 32013KT 12/M04 A3025 RMK A01 T01201043  RH  032%=      5-min Rain = 0
KTAS 192109Z 33013KT 12/M04 A3025 RMK A01 T01211041  RH  032%=      5-min Rain = 0
KTAS 192110Z 33014KT 12/M04 A3025 RMK A01 T01221042  RH  032%=      5-min Rain = 0
KTAS 192111Z 33014KT 12/M04 A3025 RMK A01 T01221043  RH  031%=      5-min Rain = 0
KTAS 192112Z 34011KT 12/M04 A3025 RMK A01 T01191043  RH  032%=      5-min Rain = 0
KTAS 192113Z 33014G19KT 12/M04 A3025 RMK A01 T01221041  RH  032%=      5-min Rain = 0
KTAS 192114Z 33017KT 13/M04 A3025 RMK A01 T01251042  RH  031%=      5-min Rain = 0
KTAS 192115Z 32013KT 12/M05 A3026 RMK A01 T01221046  RH  031%=      5-min Rain = 0
KTAS 192116Z 31012KT 12/M05 A3025 RMK A01 T01201045  RH  031%=      5-min Rain = 0
KTAS 192117Z 32011KT 12/M04 A3025 RMK A01 T01211043  RH  032%=      5-min Rain = 0
KTAS 192118Z 32011KT 12/M04 A3025 RMK A01 T01231042  RH  031%=      5-min Rain = 0
KTAS 192119Z 33013KT 13/M04 A3025 RMK A01 T01261040  RH  031%=      5-min Rain = 0
KTAS 192120Z 34014KT 13/M04 A3025 RMK A01 T01281042  RH  031%=      5-min Rain = 0
KTAS 192121Z 33012KT 12/M04 A3026 RMK A01 T01241044  RH  031%=      5-min Rain = 0
KTAS 192122Z 33010KT 12/M04 A3026 RMK A01 T01221043  RH  031%=      5-min Rain = 0
KTAS 192123Z 34014KT 12/M04 A3025 RMK A01 T01241042  RH  031%=      5-min Rain = 0
KTAS 192124Z 33015KT 13/M04 A3026 RMK A01 T01261044  RH  030%=      5-min Rain = 0
KTAS 192125Z 33013G18KT 12/M05 A3026 RMK A01 T01241046  RH  030%=      5-min Rain = 0
KTAS 192126Z 33015KT 12/M05 A3025 RMK A01 T01231045  RH  031%=      5-min Rain = 0
KTAS 192127Z 33012KT 12/M05 A3025 RMK A01 T01221045  RH  031%=      5-min Rain = 0
KTAS 192128Z 33009KT 12/M04 A3025 RMK A01 T01221044  RH  031%=      5-min Rain = 0
KTAS 192129Z 33011KT 12/M04 A3025 RMK A01 T01231044  RH  031%=      5-min Rain = 0
KTAS 192130Z 32012KT 12/M04 A3025 RMK A01 T01231043  RH  031%=      5-min Rain = 0
KTAS 192131Z 33012KT 12/M05 A3025 RMK A01 T01231045  RH  031%=      5-min Rain = 0
KTAS 192132Z 33011KT 12/M05 A3025 RMK A01 T01211045  RH  031%=      5-min Rain = 0
KTAS 192133Z 34009KT 12/M04 A3025 RMK A01 T01231044  RH  031%=      5-min Rain = 0
KTAS 192134Z 35014KT 13/M04 A3025 RMK A01 T01261043  RH  031%=      5-min Rain = 0
KTAS 192135Z 35014KT 13/M05 A3025 RMK A01 T01251045  RH  030%=      5-min Rain = 0
KTAS 192136Z 34014KT 12/M05 A3025 RMK A01 T01241045  RH  031%=      5-min Rain = 0
KTAS 192137Z 33013KT 13/M05 A3025 RMK A01 T01251045  RH  030%=      5-min Rain = 0
KTAS 192138Z 34014KT 13/M05 A3025 RMK A01 T01251045  RH  030%=      5-min Rain = 0
KTAS 192139Z 34015KT 12/M05 A3025 RMK A01 T01231047  RH  030%=      5-min Rain = 0
KTAS 192140Z 33012KT 12/M05 A3025 RMK A01 T01221046  RH  031%=      5-min Rain = 0
KTAS 192141Z 31011KT 12/M04 A3026 RMK A01 T01241044  RH  031%=      5-min Rain = 0
KTAS 192142Z 32009KT 13/M04 A3026 RMK A01 T01251044  RH  030%=      5-min Rain = 0
KTAS 192143Z 32009KT 13/M04 A3026 RMK A01 T01261043  RH  030%=      5-min Rain = 0
KTAS 192144Z 33012KT 13/M04 A3026 RMK A01 T01261044  RH  030%=      5-min Rain = 0
KTAS 192145Z 32011G16KT 12/M04 A3026 RMK A01 T01221044  RH  031%=      5-min Rain = 0
KTAS 192146Z 34013KT 12/M04 A3026 RMK A01 T01241042  RH  031%=      5-min Rain = 0
KTAS 192147Z 34014KT 12/M04 A3026 RMK A01 T01231044  RH  031%=      5-min Rain = 0
KTAS 192148Z 34010KT 12/M04 A3026 RMK A01 T01231043  RH  031%=      5-min Rain = 0
KTAS 192149Z 34012KT 12/M04 A3026 RMK A01 T01241043  RH  031%=      5-min Rain = 0
KTAS 192150Z 32011KT 12/M04 A3026 RMK A01 T01241043  RH  031%=      5-min Rain = 0
KTAS 192151Z 33013KT 12/M04 A3026 RMK A01 T01241044  RH  031%=      5-min Rain = 0
KTAS 192152Z 32007KT 12/M05 A3026 RMK A01 T01241045  RH  031%=      5-min Rain = 0
KTAS 192153Z 31012KT 13/M04 A3026 RMK A01 T01261044  RH  030%=      5-min Rain = 0
KTAS 192154Z 33012G18KT 13/M04 A3026 RMK A01 T01251044  RH  030%=      5-min Rain = 0
KTAS 192155Z 33016KT 13/M05 A3026 RMK A01 T01251045  RH  030%=      5-min Rain = 0
KTAS 192156Z 34015KT 12/M05 A3026 RMK A01 T01231046  RH  030%=      5-min Rain = 0
KTAS 192157Z 34014KT 12/M04 A3026 RMK A01 T01231044  RH  031%=      5-min Rain = 0
KTAS 192158Z 34012KT 12/M04 A3026 RMK A01 T01241043  RH  031%=      5-min Rain = 0
KTAS 192159Z 34011KT 12/M04 A3026 RMK A01 T01241044  RH  031%=      5-min Rain = 0
KTAS 192200Z 33012KT 13/M04 A3026 RMK A01 T01251042  RH  031%=      5-min Rain = 0
KTAS 192201Z 32011KT 12/M04 A3026 RMK A01 T01231044  RH  031%=      5-min Rain = 0
KTAS 192202Z 32012KT 12/M04 A3026 RMK A01 T01211044  RH  031%=      5-min Rain = 0
KTAS 192203Z 33011KT 12/M05 A3026 RMK A01 T01201045  RH  031%=      5-min Rain = 0
KTAS 192204Z 33013KT 12/M04 A3026 RMK A01 T01231043  RH  031%=      5-min Rain = 0
KTAS 192205Z 33015KT 13/M05 A3026 RMK A01 T01251045  RH  030%=      5-min Rain = 0
KTAS 192206Z 34013KT 13/M05 A3026 RMK A01 T01251045  RH  030%=      5-min Rain = 0
KTAS 192207Z 33013KT 13/M05 A3026 RMK A01 T01251046  RH  030%=      5-min Rain = 0
KTAS 192208Z 34010KT 12/M05 A3026 RMK A01 T01241045  RH  030%=      5-min Rain = 0
KTAS 192209Z 34009KT 12/M05 A3026 RMK A01 T01241046  RH  030%=      5-min Rain = 0
KTAS 192210Z 31009G15KT 13/M04 A3025 RMK A01 T01251044  RH  031%=      5-min Rain = 0
KTAS 192211Z 33012KT 13/M04 A3025 RMK A01 T01261044  RH  030%=      5-min Rain = 0
KTAS 192212Z 33012KT 13/M05 A3025 RMK A01 T01251047  RH  030%=      5-min Rain = 0
KTAS 192213Z 33012KT 12/M05 A3025 RMK A01 T01231047  RH  030%=      5-min Rain = 0
KTAS 192214Z 34010G16KT 12/M04 A3025 RMK A01 T01241044  RH  031%=      5-min Rain = 0
KTAS 192215Z 34014KT 13/M05 A3025 RMK A01 T01251045  RH  030%=      5-min Rain = 0
KTAS 192216Z 35013KT 12/M05 A3025 RMK A01 T01231046  RH  031%=      5-min Rain = 0
KTAS 192217Z 35012KT 12/M05 A3025 RMK A01 T01211046  RH  031%=      5-min Rain = 0
KTAS 192218Z 35012KT 12/M05 A3025 RMK A01 T01201046  RH  031%=      5-min Rain = 0
KTAS 192219Z 00011KT 12/M05 A3025 RMK A01 T01201046  RH  031%=      5-min Rain = 0
KTAS 192220Z 36009KT 12/M05 A3025 RMK A01 T01201045  RH  031%=      5-min Rain = 0
KTAS 192221Z 33009KT 12/M05 A3025 RMK A01 T01211045  RH  031%=      5-min Rain = 0
KTAS 192222Z 33011KT 12/M04 A3025 RMK A01 T01231044  RH  031%=      5-min Rain = 0
KTAS 192223Z 33011KT 12/M04 A3025 RMK A01 T01241044  RH  031%=      5-min Rain = 0
KTAS 192224Z 34012KT 12/M05 A3025 RMK A01 T01221045  RH  031%=      5-min Rain = 0
KTAS 192225Z 34014KT 12/M05 A3025 RMK A01 T01201046  RH  031%=      5-min Rain = 0
KTAS 192226Z 35011KT 12/M05 A3025 RMK A01 T01191045  RH  031%=      5-min Rain = 0
KTAS 192227Z 35013KT 12/M05 A3025 RMK A01 T01191045  RH  031%=      5-min Rain = 0
KTAS 192228Z 34012KT 12/M05 A3025 RMK A01 T01201045  RH  031%=      5-min Rain = 0
KTAS 192229Z 35012KT 12/M05 A3025 RMK A01 T01191045  RH  031%=      5-min Rain = 0
KTAS 192230Z 34011KT 12/M05 A3025 RMK A01 T01191045  RH  031%=      5-min Rain = 0
KTAS 192231Z 34011KT 12/M05 A3025 RMK A01 T01211045  RH  031%=      5-min Rain = 0
KTAS 192232Z 36011KT 12/M05 A3025 RMK A01 T01211045  RH  031%=      5-min Rain = 0
KTAS 192233Z 34011KT 12/M05 A3025 RMK A01 T01201046  RH  031%=      5-min Rain = 0
KTAS 192234Z 35011KT 12/M04 A3025 RMK A01 T01201044  RH  031%=      5-min Rain = 0
KTAS 192235Z 35014KT 12/M05 A3025 RMK A01 T01201045  RH  031%=      5-min Rain = 0
KTAS 192236Z 35010KT 12/M05 A3025 RMK A01 T01171046  RH  032%=      5-min Rain = 0
KTAS 192237Z 01012KT 12/M05 A3025 RMK A01 T01161045  RH  032%=      5-min Rain = 0
KTAS 192238Z 00013KT 12/M05 A3025 RMK A01 T01171045  RH  032%=      5-min Rain = 0
KTAS 192239Z 00011KT 12/M04 A3025 RMK A01 T01171044  RH  032%=      5-min Rain = 0
KTAS 192240Z 35009KT 12/M04 A3025 RMK A01 T01171044  RH  032%=      5-min Rain = 0
KTAS 192241Z 34008KT 12/M04 A3025 RMK A01 T01171044  RH  032%=      5-min Rain = 0
KTAS 192242Z 33008KT 12/M05 A3025 RMK A01 T01171045  RH  032%=      5-min Rain = 0
KTAS 192243Z 35009KT 12/M04 A3025 RMK A01 T01171044  RH  032%=      5-min Rain = 0
KTAS 192244Z 33009KT 12/M04 A3025 RMK A01 T01181043  RH  032%=      5-min Rain = 0
KTAS 192245Z 32008KT 12/M04 A3025 RMK A01 T01191044  RH  032%=      5-min Rain = 0
KTAS 192246Z 32007KT 12/M05 A3025 RMK A01 T01181045  RH  032%=      5-min Rain = 0
KTAS 192247Z 34009KT 12/M04 A3025 RMK A01 T01181043  RH  032%=      5-min Rain = 0
KTAS 192248Z 35011KT 12/M04 A3025 RMK A01 T01191044  RH  032%=      5-min Rain = 0
KTAS 192249Z 33009G14KT 12/M04 A3025 RMK A01 T01191043  RH  032%=      5-min Rain = 0
KTAS 192250Z 34014KT 12/M04 A3025 RMK A01 T01191043  RH  032%=      5-min Rain = 0
KTAS 192251Z 34012KT 12/M04 A3026 RMK A01 T01191044  RH  032%=      5-min Rain = 0
KTAS 192252Z 34012KT 12/M05 A3026 RMK A01 T01171045  RH  032%=      5-min Rain = 0
KTAS 192253Z 34012KT 12/M05 A3026 RMK A01 T01171046  RH  032%=      5-min Rain = 0
KTAS 192254Z 35009KT 12/M05 A3026 RMK A01 T01161045  RH  032%=      5-min Rain = 0
KTAS 192255Z 34010KT 12/M05 A3026 RMK A01 T01171045  RH  032%=      5-min Rain = 0
KTAS 192256Z 35011KT 12/M05 A3026 RMK A01 T01161045  RH  032%=      5-min Rain = 0
KTAS 192257Z 35011KT 12/M05 A3026 RMK A01 T01151045  RH  032%=      5-min Rain = 0
KTAS 192258Z 34010KT 12/M04 A3026 RMK A01 T01161044  RH  032%=      5-min Rain = 0
KTAS 192259Z 34009KT 12/M05 A3026 RMK A01 T01171045  RH  032%=      5-min Rain = 0
KTAS 192300Z 34011KT 12/M05 A3026 RMK A01 T01161045  RH  032%=      5-min Rain = 0
KTAS 192301Z 35009KT 12/M05 A3026 RMK A01 T01161045  RH  032%=      5-min Rain = 0
KTAS 192302Z 34009KT 12/M04 A3026 RMK A01 T01161044  RH  032%=      5-min Rain = 0
KTAS 192303Z 35010KT 12/M04 A3026 RMK A01 T01161044  RH  032%=      5-min Rain = 0
KTAS 192304Z 00009KT 12/M04 A3026 RMK A01 T01151044  RH  033%=      5-min Rain = 0
KTAS 192305Z 00008KT 12/M04 A3026 RMK A01 T01151044  RH  033%=      5-min Rain = 0
KTAS 192306Z 35007KT 12/M04 A3026 RMK A01 T01151044  RH  033%=      5-min Rain = 0
KTAS 192307Z 34006KT 12/M04 A3026 RMK A01 T01161043  RH  033%=      5-min Rain = 0
KTAS 192308Z 34010KT 12/M04 A3026 RMK A01 T01161044  RH  032%=      5-min Rain = 0
KTAS 192309Z 35009KT 12/M04 A3026 RMK A01 T01151044  RH  032%=      5-min Rain = 0
KTAS 192310Z 34009KT 11/M04 A3026 RMK A01 T01141044  RH  033%=      5-min Rain = 0
KTAS 192311Z 34008KT 11/M04 A3026 RMK A01 T01141044  RH  033%=      5-min Rain = 0
KTAS 192312Z 34008KT 11/M04 A3026 RMK A01 T01141044  RH  033%=      5-min Rain = 0
KTAS 192313Z 35007KT 11/M04 A3026 RMK A01 T01141043  RH  033%=      5-min Rain = 0
KTAS 192314Z 35008KT 12/M04 A3026 RMK A01 T01151043  RH  033%=      5-min Rain = 0
KTAS 192315Z 35009KT 11/M04 A3025 RMK A01 T01141043  RH  033%=      5-min Rain = 0
KTAS 192316Z 35008KT 11/M04 A3025 RMK A01 T01141044  RH  033%=      5-min Rain = 0
KTAS 192317Z 35009KT 11/M04 A3025 RMK A01 T01131044  RH  033%=      5-min Rain = 0
KTAS 192318Z 35010KT 11/M04 A3025 RMK A01 T01121044  RH  033%=      5-min Rain = 0
KTAS 192319Z 34009KT 11/M04 A3025 RMK A01 T01121044  RH  033%=      5-min Rain = 0
KTAS 192320Z 34009KT 11/M04 A3025 RMK A01 T01121044  RH  033%=      5-min Rain = 0
KTAS 192321Z 34008KT 11/M04 A3025 RMK A01 T01111044  RH  033%=      5-min Rain = 0
KTAS 192322Z 00009KT 11/M04 A3025 RMK A01 T01111044  RH  034%=      5-min Rain = 0
KTAS 192323Z 00008KT 11/M04 A3025 RMK A01 T01101044  RH  034%=      5-min Rain = 0
KTAS 192324Z 36007KT 11/M04 A3025 RMK A01 T01091044  RH  034%=      5-min Rain = 0
KTAS 192325Z 01006KT 11/M04 A3025 RMK A01 T01091044  RH  034%=      5-min Rain = 0
KTAS 192326Z 36008KT 11/M04 A3025 RMK A01 T01081044  RH  034%=      5-min Rain = 0
KTAS 192327Z 01008KT 11/M04 A3025 RMK A01 T01081044  RH  034%=      5-min Rain = 0
KTAS 192328Z 36009KT 11/M04 A3025 RMK A01 T01081044  RH  034%=      5-min Rain = 0
KTAS 192329Z 36010KT 11/M04 A3025 RMK A01 T01071044  RH  034%=      5-min Rain = 0
KTAS 192330Z 01008KT 11/M04 A3025 RMK A01 T01071044  RH  034%=      5-min Rain = 0
KTAS 192331Z 00010KT 11/M04 A3025 RMK A01 T01071044  RH  034%=      5-min Rain = 0
KTAS 192332Z 01010KT 11/M04 A3025 RMK A01 T01061044  RH  035%=      5-min Rain = 0
KTAS 192333Z 00008KT 11/M04 A3025 RMK A01 T01061044  RH  035%=      5-min Rain = 0
KTAS 192334Z 00007KT 11/M04 A3025 RMK A01 T01051044  RH  035%=      5-min Rain = 0
KTAS 192335Z 01007KT 11/M05 A3025 RMK A01 T01051045  RH  035%=      5-min Rain = 0
KTAS 192336Z 01007KT 10/M05 A3025 RMK A01 T01041045  RH  035%=      5-min Rain = 0
KTAS 192337Z 01008KT 10/M05 A3025 RMK A01 T01031045  RH  035%=      5-min Rain = 0
KTAS 192338Z 01008KT 10/M05 A3025 RMK A01 T01031045  RH  035%=      5-min Rain = 0
KTAS 192339Z 01006KT 10/M05 A3025 RMK A01 T01031045  RH  035%=      5-min Rain = 0
KTAS 192340Z 01007KT 10/M05 A3025 RMK A01 T01011045  RH  035%=      5-min Rain = 0
KTAS 192341Z 01007KT 10/M05 A3025 RMK A01 T01001045  RH  036%=      5-min Rain = 0
KTAS 192342Z 01007KT 10/M05 A3025 RMK A01 T00991045  RH  036%=      5-min Rain = 0
KTAS 192343Z 00007KT 10/M05 A3025 RMK A01 T00991045  RH  036%=      5-min Rain = 0
KTAS 192344Z 01007KT 10/M05 A3025 RMK A01 T00991045  RH  036%=      5-min Rain = 0
KTAS 192345Z 01009KT 10/M05 A3025 RMK A01 T00981046  RH  036%=      5-min Rain = 0
KTAS 192346Z 01009KT 10/M04 A3025 RMK A01 T00971044  RH  037%=      5-min Rain = 0
KTAS 192347Z 02008KT 10/M04 A3025 RMK A01 T00971044  RH  037%=      5-min Rain = 0
KTAS 192348Z 00007KT 10/M04 A3025 RMK A01 T00971044  RH  037%=      5-min Rain = 0
KTAS 192349Z 00007KT 10/M04 A3025 RMK A01 T00961044  RH  037%=      5-min Rain = 0
KTAS 192350Z 01006KT 10/M04 A3025 RMK A01 T00951044  RH  037%=      5-min Rain = 0
KTAS 192351Z 01006KT 09/M05 A3025 RMK A01 T00931045  RH  037%=      5-min Rain = 0
KTAS 192352Z 01005KT 09/M05 A3025 RMK A01 T00921046  RH  038%=      5-min Rain = 0
KTAS 192353Z 01006KT 09/M05 A3026 RMK A01 T00901046  RH  038%=      5-min Rain = 0
KTAS 192354Z 01006KT 09/M05 A3026 RMK A01 T00891047  RH  038%=      5-min Rain = 0
KTAS 192355Z 01006KT 09/M05 A3026 RMK A01 T00871047  RH  038%=      5-min Rain = 0
KTAS 192356Z 01006KT 09/M05 A3026 RMK A01 T00861047  RH  039%=      5-min Rain = 0
KTAS 192357Z 01006KT 09/M05 A3026 RMK A01 T00851046  RH  039%=      5-min Rain = 0
KTAS 192358Z 01005KT 08/M05 A3026 RMK A01 T00831047  RH  039%=      5-min Rain = 0
KTAS 192359Z 01005KT 08/M05 A3026 RMK A01 T00811048  RH  040%=      5-min Rain = 0
KTAS 200000Z 01005KT 08/M05 A3026 RMK A01 T00801049  RH  040%=      5-min Rain = 0
KTAS 200001Z 01006KT 08/M05 A3026 RMK A01 T00781048  RH  040%=      5-min Rain = 0
KTAS 200002Z 01006KT 08/M05 A3026 RMK A01 T00771049  RH  041%=      5-min Rain = 0
KTAS 200003Z 01007KT 08/M05 A3026 RMK A01 T00751049  RH  041%=      5-min Rain = 0
KTAS 200004Z 02007KT 07/M05 A3026 RMK A01 T00741049  RH  041%=      5-min Rain = 0
KTAS 200005Z 02006KT 07/M05 A3026 RMK A01 T00721049  RH  042%=      5-min Rain = 0
KTAS 200006Z 02006KT 07/M05 A3026 RMK A01 T00701050  RH  042%=      5-min Rain = 0
KTAS 200007Z 02006KT 07/M05 A3026 RMK A01 T00681050  RH  043%=      5-min Rain = 0
KTAS 200008Z 02006KT 07/M05 A3026 RMK A01 T00671049  RH  043%=      5-min Rain = 0
KTAS 200009Z 02006KT 07/M05 A3026 RMK A01 T00661049  RH  044%=      5-min Rain = 0
KTAS 200010Z 03006KT 07/M05 A3026 RMK A01 T00661049  RH  044%=      5-min Rain = 0
KTAS 200011Z 03005KT 07/M05 A3026 RMK A01 T00651048  RH  044%=      5-min Rain = 0
KTAS 200012Z 03005KT 07/M05 A3026 RMK A01 T00661046  RH  044%=      5-min Rain = 0
KTAS 200013Z 03005KT 07/M05 A3026 RMK A01 T00671045  RH  044%=      5-min Rain = 0
KTAS 200014Z 03005KT 07/M05 A3026 RMK A01 T00691045  RH  044%=      5-min Rain = 0
KTAS 200015Z 03005KT 07/M05 A3026 RMK A01 T00701045  RH  044%=      5-min Rain = 0
KTAS 200016Z 03005KT 07/M05 A3026 RMK A01 T00701045  RH  044%=      5-min Rain = 0
KTAS 200017Z 03005KT 07/M05 A3026 RMK A01 T00691046  RH  044%=      5-min Rain = 0
KTAS 200018Z 03005KT 07/M05 A3026 RMK A01 T00691046  RH  044%=      5-min Rain = 0
KTAS 200019Z 03005KT 07/M05 A3026 RMK A01 T00681045  RH  044%=      5-min Rain = 0
KTAS 200020Z 04006KT 07/M05 A3026 RMK A01 T00681045  RH  044%=      5-min Rain = 0
KTAS 200021Z 04006KT 07/M05 A3026 RMK A01 T00681045  RH  044%=      5-min Rain = 0
KTAS 200022Z 04005KT 07/M04 A3026 RMK A01 T00681044  RH  045%=      5-min Rain = 0
KTAS 200023Z 04005KT 07/M04 A3026 RMK A01 T00681044  RH  044%=      5-min Rain = 0
KTAS 200024Z 04004KT 07/M04 A3026 RMK A01 T00691044  RH  044%=      5-min Rain = 0
KTAS 200025Z 04004KT 07/M05 A3026 RMK A01 T00681045  RH  044%=      5-min Rain = 0
KTAS 200026Z 04004KT 07/M04 A3026 RMK A01 T00681044  RH  045%=      5-min Rain = 0
KTAS 200027Z 04004KT 07/M05 A3026 RMK A01 T00681045  RH  045%=      5-min Rain = 0
KTAS 200028Z 05004KT 07/M05 A3026 RMK A01 T00671045  RH  045%=      5-min Rain = 0
KTAS 200029Z 04004KT 07/M05 A3026 RMK A01 T00671045  RH  045%=      5-min Rain = 0
KTAS 200030Z 04004KT 07/M04 A3026 RMK A01 T00671044  RH  045%=      5-min Rain = 0
KTAS 200031Z 04004KT 07/M05 A3026 RMK A01 T00671045  RH  045%=      5-min Rain = 0
KTAS 200032Z 04004KT 07/M05 A3026 RMK A01 T00661045  RH  045%=      5-min Rain = 0
KTAS 200033Z 04004KT 07/M05 A3026 RMK A01 T00661045  RH  045%=      5-min Rain = 0
KTAS 200034Z 05004KT 07/M05 A3026 RMK A01 T00661045  RH  045%=      5-min Rain = 0
KTAS 200035Z 06004KT 07/M04 A3026 RMK A01 T00651044  RH  045%=      5-min Rain = 0
KTAS 200036Z 06004KT 07/M05 A3026 RMK A01 T00651045  RH  045%=      5-min Rain = 0
KTAS 200037Z 05005KT 06/M04 A3026 RMK A01 T00641044  RH  046%=      5-min Rain = 0
KTAS 200038Z 06005KT 06/M04 A3026 RMK A01 T00641044  RH  046%=      5-min Rain = 0
KTAS 200039Z 05005KT 07/M04 A3026 RMK A01 T00651044  RH  046%=      5-min Rain = 0
KTAS 200040Z 06005KT 06/M04 A3026 RMK A01 T00641044  RH  046%=      5-min Rain = 0
KTAS 200041Z 06005KT 06/M04 A3026 RMK A01 T00631043  RH  046%=      5-min Rain = 0
KTAS 200042Z 06004KT 06/M04 A3026 RMK A01 T00621044  RH  046%=      5-min Rain = 0
KTAS 200043Z 06004KT 06/M04 A3026 RMK A01 T00611044  RH  047%=      5-min Rain = 0
KTAS 200044Z 06004KT 06/M04 A3026 RMK A01 T00611044  RH  047%=      5-min Rain = 0
KTAS 200045Z 06004KT 06/M04 A3026 RMK A01 T00611043  RH  047%=      5-min Rain = 0
KTAS 200046Z 06004KT 06/M04 A3026 RMK A01 T00621043  RH  047%=      5-min Rain = 0
KTAS 200047Z 06004KT 06/M04 A3026 RMK A01 T00621043  RH  047%=      5-min Rain = 0
KTAS 200048Z 05004KT 06/M04 A3027 RMK A01 T00621043  RH  047%=      5-min Rain = 0
KTAS 200049Z 05004KT 06/M04 A3027 RMK A01 T00611044  RH  047%=      5-min Rain = 0
KTAS 200050Z 05005KT 06/M04 A3027 RMK A01 T00601044  RH  047%=      5-min Rain = 0
KTAS 200051Z 05005KT 06/M04 A3027 RMK A01 T00591044  RH  047%=      5-min Rain = 0
KTAS 200052Z 04005KT 06/M05 A3027 RMK A01 T00571045  RH  048%=      5-min Rain = 0
KTAS 200053Z 05005KT 06/M04 A3027 RMK A01 T00571044  RH  048%=      5-min Rain = 0
KTAS 200054Z 05005KT 06/M05 A3027 RMK A01 T00561045  RH  048%=      5-min Rain = 0
KTAS 200055Z 05005KT 06/M05 A3027 RMK A01 T00561045  RH  048%=      5-min Rain = 0
KTAS 200056Z 05004KT 06/M05 A3027 RMK A01 T00551045  RH  049%=      5-min Rain = 0
KTAS 200057Z 06004KT 05/M04 A3027 RMK A01 T00541044  RH  049%=      5-min Rain = 0
KTAS 200058Z 06004KT 05/M04 A3027 RMK A01 T00541044  RH  049%=      5-min Rain = 0
KTAS 200059Z 05004KT 05/M04 A3027 RMK A01 T00541044  RH  050%=      5-min Rain = 0
KTAS 200100Z 05004KT 06/M04 A3027 RMK A01 T00551042  RH  050%=      5-min Rain = 0
KTAS 200101Z 06004KT 05/M04 A3027 RMK A01 T00541043  RH  050%=      5-min Rain = 0
KTAS 200102Z 07004KT 05/M04 A3027 RMK A01 T00531043  RH  050%=      5-min Rain = 0
KTAS 200103Z 07003KT 05/M04 A3027 RMK A01 T00521044  RH  050%=      5-min Rain = 0
KTAS 200104Z 06004KT 05/M04 A3027 RMK A01 T00501043  RH  051%=      5-min Rain = 0
KTAS 200105Z 07004KT 05/M04 A3027 RMK A01 T00521041  RH  051%=      5-min Rain = 0
KTAS 200106Z 06005KT 05/M04 A3027 RMK A01 T00531040  RH  051%=      5-min Rain = 0
KTAS 200107Z 06005KT 05/M04 A3027 RMK A01 T00541040  RH  051%=      5-min Rain = 0
KTAS 200108Z 07004KT 06/M04 A3027 RMK A01 T00551039  RH  051%=      5-min Rain = 0
KTAS 200109Z 07004KT 05/M04 A3027 RMK A01 T00541040  RH  051%=      5-min Rain = 0
KTAS 200110Z 07004KT 05/M04 A3027 RMK A01 T00521040  RH  051%=      5-min Rain = 0
KTAS 200111Z 08004KT 05/M04 A3027 RMK A01 T00511041  RH  051%=      5-min Rain = 0
KTAS 200112Z 08004KT 05/M04 A3027 RMK A01 T00481041  RH  052%=      5-min Rain = 0
KTAS 200113Z 08004KT 05/M04 A3027 RMK A01 T00461042  RH  053%=      5-min Rain = 0
KTAS 200114Z 08004KT 05/M04 A3027 RMK A01 T00461041  RH  053%=      5-min Rain = 0
KTAS 200115Z 08004KT 05/M04 A3027 RMK A01 T00451041  RH  053%=      5-min Rain = 0
KTAS 200116Z 08004KT 05/M04 A3027 RMK A01 T00451042  RH  053%=      5-min Rain = 0
KTAS 200117Z 07005KT 05/M04 A3027 RMK A01 T00461041  RH  053%=      5-min Rain = 0
KTAS 200118Z 07005KT 05/M04 A3027 RMK A01 T00471041  RH  053%=      5-min Rain = 0
KTAS 200119Z 07005KT 05/M04 A3027 RMK A01 T00491041  RH  052%=      5-min Rain = 0
KTAS 200120Z 07005KT 05/M04 A3027 RMK A01 T00501041  RH  052%=      5-min Rain = 0
KTAS 200121Z 07005KT 05/M04 A3027 RMK A01 T00501041  RH  052%=      5-min Rain = 0
KTAS 200122Z 07005KT 05/M04 A3027 RMK A01 T00511042  RH  051%=      5-min Rain = 0
KTAS 200123Z 07005KT 05/M04 A3027 RMK A01 T00501043  RH  051%=      5-min Rain = 0
KTAS 200124Z 06005KT 05/M04 A3027 RMK A01 T00491043  RH  051%=      5-min Rain = 0
KTAS 200125Z 07005KT 05/M04 A3027 RMK A01 T00481044  RH  051%=      5-min Rain = 0
KTAS 200126Z 06005KT 05/M04 A3027 RMK A01 T00481044  RH  051%=      5-min Rain = 0
KTAS 200127Z 06006KT 05/M04 A3027 RMK A01 T00481043  RH  051%=      5-min Rain = 0
KTAS 200128Z 06006KT 05/M05 A3027 RMK A01 T00451046  RH  052%=      5-min Rain = 0
KTAS 200129Z 06006KT 04/M05 A3027 RMK A01 T00421046  RH  052%=      5-min Rain = 0
KTAS 200130Z 06006KT 04/M05 A3027 RMK A01 T00411047  RH  053%=      5-min Rain = 0
KTAS 200131Z 06006KT 04/M05 A3027 RMK A01 T00391047  RH  053%=      5-min Rain = 0
KTAS 200132Z 06006KT 04/M05 A3027 RMK A01 T00381048  RH  054%=      5-min Rain = 0
KTAS 200133Z 06006KT 04/M05 A3027 RMK A01 T00371047  RH  054%=      5-min Rain = 0
KTAS 200134Z 06006KT 04/M05 A3027 RMK A01 T00371047  RH  054%=      5-min Rain = 0
KTAS 200135Z 06006KT 04/M05 A3027 RMK A01 T00371047  RH  054%=      5-min Rain = 0
KTAS 200136Z 06006KT 04/M05 A3027 RMK A01 T00371047  RH  054%=      5-min Rain = 0
KTAS 200137Z 06006KT 04/M05 A3027 RMK A01 T00361049  RH  054%=      5-min Rain = 0
KTAS 200138Z 06005KT 03/M05 A3027 RMK A01 T00341050  RH  054%=      5-min Rain = 0
KTAS 200139Z 06005KT 03/M05 A3027 RMK A01 T00321051  RH  054%=      5-min Rain = 0
KTAS 200140Z 07005KT 03/M05 A3027 RMK A01 T00311050  RH  055%=      5-min Rain = 0
KTAS 200141Z 07005KT 03/M05 A3027 RMK A01 T00311050  RH  055%=      5-min Rain = 0
KTAS 200142Z 07005KT 03/M05 A3027 RMK A01 T00311049  RH  055%=      5-min Rain = 0
KTAS 200143Z 07005KT 03/M05 A3027 RMK A01 T00311049  RH  056%=      5-min Rain = 0
KTAS 200144Z 08005KT 03/M05 A3027 RMK A01 T00331048  RH  055%=      5-min Rain = 0
KTAS 200145Z 08005KT 03/M05 A3027 RMK A01 T00331049  RH  055%=      5-min Rain = 0
KTAS 200146Z 08006KT 03/M05 A3027 RMK A01 T00321050  RH  055%=      5-min Rain = 0
KTAS 200147Z 08006KT 03/M05 A3027 RMK A01 T00321050  RH  055%=      5-min Rain = 0
KTAS 200148Z 08006KT 03/M05 A3027 RMK A01 T00321050  RH  055%=      5-min Rain = 0
KTAS 200149Z 08006KT 03/M05 A3027 RMK A01 T00321050  RH  055%=      5-min Rain = 0
KTAS 200150Z 08006KT 03/M05 A3027 RMK A01 T00311050  RH  055%=      5-min Rain = 0
KTAS 200151Z 07007KT 03/M05 A3027 RMK A01 T00321049  RH  055%=      5-min Rain = 0
KTAS 200152Z 08007KT 03/M05 A3027 RMK A01 T00321049  RH  055%=      5-min Rain = 0
KTAS 200153Z 07007KT 03/M05 A3026 RMK A01 T00321050  RH  055%=      5-min Rain = 0
KTAS 200154Z 07007KT 03/M05 A3026 RMK A01 T00321050  RH  055%=      5-min Rain = 0
KTAS 200155Z 07008KT 03/M05 A3026 RMK A01 T00331050  RH  055%=      5-min Rain = 0
KTAS 200156Z 07008KT 03/M05 A3026 RMK A01 T00321050  RH  055%=      5-min Rain = 0
KTAS 200157Z 07008KT 03/M05 A3026 RMK A01 T00321051  RH  055%=      5-min Rain = 0
KTAS 200158Z 07008KT 03/M05 A3026 RMK A01 T00311051  RH  055%=      5-min Rain = 0
KTAS 200159Z 07007KT 03/M05 A3026 RMK A01 T00301052  RH  055%=      5-min Rain = 0
KTAS 200200Z 07007KT 03/M05 A3026 RMK A01 T00291052  RH  055%=      5-min Rain = 0
KTAS 200201Z 07006KT 03/M05 A3026 RMK A01 T00281052  RH  056%=      5-min Rain = 0
KTAS 200202Z 08006KT 03/M05 A3026 RMK A01 T00271052  RH  056%=      5-min Rain = 0
KTAS 200203Z 08006KT 03/M05 A3026 RMK A01 T00271052  RH  056%=      5-min Rain = 0
KTAS 200204Z 08006KT 03/M05 A3026 RMK A01 T00271052  RH  056%=      5-min Rain = 0
KTAS 200205Z 08006KT 03/M05 A3026 RMK A01 T00261052  RH  056%=      5-min Rain = 0
KTAS 200206Z 09006KT 03/M05 A3026 RMK A01 T00261052  RH  056%=      5-min Rain = 0
KTAS 200207Z 09006KT 03/M05 A3026 RMK A01 T00261051  RH  057%=      5-min Rain = 0
KTAS 200208Z 09006KT 03/M05 A3025 RMK A01 T00271051  RH  056%=      5-min Rain = 0
KTAS 200209Z 09007KT 03/M05 A3025 RMK A01 T00281051  RH  056%=      5-min Rain = 0
KTAS 200210Z 09007KT 03/M05 A3025 RMK A01 T00281051  RH  056%=      5-min Rain = 0
KTAS 200211Z 08007KT 03/M05 A3026 RMK A01 T00281052  RH  056%=      5-min Rain = 0
KTAS 200212Z 08008KT 03/M05 A3026 RMK A01 T00291052  RH  055%=      5-min Rain = 0
KTAS 200213Z 08008KT 03/M05 A3026 RMK A01 T00281053  RH  055%=      5-min Rain = 0
KTAS 200214Z 08008KT 03/M05 A3026 RMK A01 T00281053  RH  055%=      5-min Rain = 0
KTAS 200215Z 09008KT 03/M05 A3026 RMK A01 T00271054  RH  055%=      5-min Rain = 0
KTAS 200216Z 09008KT 03/M05 A3026 RMK A01 T00261054  RH  055%=      5-min Rain = 0
KTAS 200217Z 09008KT 03/M05 A3026 RMK A01 T00261054  RH  056%=      5-min Rain = 0
KTAS 200218Z 09008KT 03/M05 A3026 RMK A01 T00251054  RH  056%=      5-min Rain = 0
KTAS 200219Z 09007KT 03/M05 A3026 RMK A01 T00251054  RH  056%=      5-min Rain = 0
KTAS 200220Z 09007KT 03/M05 A3026 RMK A01 T00251054  RH  056%=      5-min Rain = 0
KTAS 200221Z 09007KT 03/M05 A3027 RMK A01 T00251054  RH  056%=      5-min Rain = 0
KTAS 200222Z 09007KT 03/M05 A3027 RMK A01 T00251054  RH  056%=      5-min Rain = 0
KTAS 200223Z 09007KT 03/M05 A3027 RMK A01 T00251054  RH  056%=      5-min Rain = 0
KTAS 200224Z 08007KT 03/M05 A3027 RMK A01 T00261054  RH  056%=      5-min Rain = 0
KTAS 200225Z 08007KT 03/M05 A3027 RMK A01 T00261054  RH  056%=      5-min Rain = 0
KTAS 200226Z 08007KT 03/M06 A3027 RMK A01 T00251055  RH  056%=      5-min Rain = 0
KTAS 200227Z 08007KT 02/M05 A3027 RMK A01 T00241054  RH  056%=      5-min Rain = 0
KTAS 200228Z 08007KT 02/M05 A3027 RMK A01 T00241054  RH  056%=      5-min Rain = 0
KTAS 200229Z 08008KT 02/M06 A3027 RMK A01 T00231055  RH  056%=      5-min Rain = 0
KTAS 200230Z 08008KT 02/M05 A3027 RMK A01 T00231054  RH  057%=      5-min Rain = 0
KTAS 200231Z 08008KT 02/M05 A3027 RMK A01 T00231054  RH  057%=      5-min Rain = 0
KTAS 200232Z 08008KT 02/M06 A3027 RMK A01 T00221055  RH  057%=      5-min Rain = 0
KTAS 200233Z 08008KT 02/M06 A3027 RMK A01 T00211055  RH  057%=      5-min Rain = 0
KTAS 200234Z 08007KT 02/M06 A3027 RMK A01 T00211055  RH  057%=      5-min Rain = 0
KTAS 200235Z 08007KT 02/M06 A3027 RMK A01 T00201055  RH  058%=      5-min Rain = 0
KTAS 200236Z 08007KT 02/M06 A3027 RMK A01 T00201055  RH  058%=      5-min Rain = 0
KTAS 200237Z 08006KT 02/M06 A3028 RMK A01 T00201055  RH  058%=      5-min Rain = 0
KTAS 200238Z 08006KT 02/M06 A3028 RMK A01 T00201055  RH  058%=      5-min Rain = 0
KTAS 200239Z 08005KT 02/M05 A3028 RMK A01 T00201054  RH  058%=      5-min Rain = 0
KTAS 200240Z 08005KT 02/M05 A3029 RMK A01 T00211054  RH  058%=      5-min Rain = 0
KTAS 200241Z 08005KT 02/M05 A3028 RMK A01 T00231053  RH  057%=      5-min Rain = 0
KTAS 200242Z 08006KT 03/M05 A3028 RMK A01 T00251052  RH  057%=      5-min Rain = 0
KTAS 200243Z 08006KT 03/M05 A3028 RMK A01 T00251054  RH  056%=      5-min Rain = 0
KTAS 200244Z 08006KT 02/M06 A3027 RMK A01 T00231055  RH  056%=      5-min Rain = 0
KTAS 200245Z 08007KT 02/M05 A3027 RMK A01 T00231054  RH  057%=      5-min Rain = 0
KTAS 200246Z 07007KT 02/M05 A3027 RMK A01 T00231054  RH  057%=      5-min Rain = 0
KTAS 200247Z 07007KT 02/M06 A3027 RMK A01 T00221055  RH  057%=      5-min Rain = 0
KTAS 200248Z 06007KT 02/M06 A3027 RMK A01 T00221055  RH  057%=      5-min Rain = 0
KTAS 200249Z 06007KT 02/M06 A3028 RMK A01 T00211055  RH  057%=      5-min Rain = 0
KTAS 200250Z 06006KT 02/M06 A3028 RMK A01 T00211055  RH  057%=      5-min Rain = 0
KTAS 200251Z 06005KT 02/M06 A3028 RMK A01 T00201057  RH  057%=      5-min Rain = 0
KTAS 200252Z 06005KT 02/M06 A3028 RMK A01 T00191057  RH  057%=      5-min Rain = 0
KTAS 200253Z 06005KT 02/M06 A3028 RMK A01 T00181057  RH  058%=      5-min Rain = 0
KTAS 200254Z 07005KT 02/M06 A3028 RMK A01 T00171057  RH  058%=      5-min Rain = 0
KTAS 200255Z 07006KT 02/M06 A3028 RMK A01 T00181055  RH  058%=      5-min Rain = 0
KTAS 200256Z 07005KT 02/M06 A3028 RMK A01 T00181056  RH  058%=      5-min Rain = 0
KTAS 200257Z 07005KT 02/M06 A3028 RMK A01 T00191055  RH  058%=      5-min Rain = 0
KTAS 200258Z 07005KT 02/M05 A3029 RMK A01 T00201054  RH  058%=      5-min Rain = 0
KTAS 200259Z 06004KT 02/M05 A3029 RMK A01 T00211054  RH  057%=      5-min Rain = 0
KTAS 200300Z 06005KT 02/M06 A3029 RMK A01 T00211055  RH  057%=      5-min Rain = 0
KTAS 200301Z 06005KT 02/M06 A3029 RMK A01 T00211055  RH  057%=      5-min Rain = 0
KTAS 200302Z 06005KT 02/M06 A3029 RMK A01 T00211055  RH  057%=      5-min Rain = 0
KTAS 200303Z 06005KT 02/M05 A3029 RMK A01 T00231054  RH  057%=      5-min Rain = 0
KTAS 200304Z 06005KT 02/M06 A3029 RMK A01 T00231056  RH  056%=      5-min Rain = 0
KTAS 200305Z 06005KT 02/M06 A3029 RMK A01 T00211056  RH  057%=      5-min Rain = 0
KTAS 200306Z 06006KT 02/M05 A3029 RMK A01 T00231054  RH  057%=      5-min Rain = 0
KTAS 200307Z 06005KT 03/M05 A3029 RMK A01 T00251053  RH  056%=      5-min Rain = 0
KTAS 200308Z 07005KT 03/M05 A3029 RMK A01 T00271053  RH  056%=      5-min Rain = 0
KTAS 200309Z 08005KT 03/M05 A3029 RMK A01 T00291052  RH  055%=      5-min Rain = 0
KTAS 200310Z 08005KT 03/M05 A3029 RMK A01 T00291054  RH  055%=      5-min Rain = 0
KTAS 200311Z 08005KT 03/M06 A3029 RMK A01 T00271055  RH  055%=      5-min Rain = 0
KTAS 200312Z 08005KT 03/M06 A3029 RMK A01 T00261055  RH  055%=      5-min Rain = 0
KTAS 200313Z 08005KT 03/M05 A3029 RMK A01 T00251054  RH  056%=      5-min Rain = 0
KTAS 200314Z 08005KT 03/M05 A3029 RMK A01 T00261053  RH  056%=      5-min Rain = 0
KTAS 200315Z 08005KT 03/M05 A3029 RMK A01 T00281053  RH  055%=      5-min Rain = 0
KTAS 200316Z 09005KT 03/M05 A3029 RMK A01 T00281053  RH  055%=      5-min Rain = 0
KTAS 200317Z 09005KT 03/M05 A3029 RMK A01 T00291053  RH  055%=      5-min Rain = 0
KTAS 200318Z 09006KT 03/M05 A3028 RMK A01 T00301053  RH  054%=      5-min Rain = 0
KTAS 200319Z 09006KT 03/M05 A3028 RMK A01 T00321053  RH  054%=      5-min Rain = 0
KTAS 200320Z 09006KT 03/M05 A3028 RMK A01 T00321053  RH  053%=      5-min Rain = 0
KTAS 200321Z 09006KT 03/M05 A3028 RMK A01 T00321054  RH  053%=      5-min Rain = 0
KTAS 200322Z 09006KT 03/M06 A3028 RMK A01 T00311055  RH  053%=      5-min Rain = 0
KTAS 200323Z 09006KT 03/M06 A3028 RMK A01 T00291055  RH  054%=      5-min Rain = 0
KTAS 200324Z 09006KT 03/M06 A3028 RMK A01 T00281056  RH  054%=      5-min Rain = 0
KTAS 200325Z 09007KT 03/M06 A3028 RMK A01 T00271056  RH  054%=      5-min Rain = 0
KTAS 200326Z 09007KT 03/M06 A3027 RMK A01 T00271056  RH  054%=      5-min Rain = 0
KTAS 200327Z 09008KT 03/M06 A3027 RMK A01 T00261056  RH  055%=      5-min Rain = 0
KTAS 200328Z 09008KT 03/M06 A3027 RMK A01 T00251057  RH  055%=      5-min Rain = 0
KTAS 200329Z 09008KT 02/M06 A3027 RMK A01 T00221058  RH  055%=      5-min Rain = 0
KTAS 200330Z 09008KT 02/M06 A3027 RMK A01 T00211057  RH  056%=      5-min Rain = 0
KTAS 200331Z 09008KT 02/M06 A3027 RMK A01 T00221056  RH  057%=      5-min Rain = 0
KTAS 200332Z 09008KT 02/M06 A3027 RMK A01 T00221055  RH  057%=      5-min Rain = 0
KTAS 200333Z 09007KT 02/M06 A3028 RMK A01 T00221055  RH  057%=      5-min Rain = 0
KTAS 200334Z 10007KT 02/M05 A3028 RMK A01 T00231054  RH  057%=      5-min Rain = 0
KTAS 200335Z 09007KT 02/M05 A3028 RMK A01 T00241054  RH  056%=      5-min Rain = 0
KTAS 200336Z 08006KT 02/M06 A3028 RMK A01 T00231055  RH  056%=      5-min Rain = 0
KTAS 200337Z 09006KT 02/M06 A3028 RMK A01 T00221055  RH  057%=      5-min Rain = 0
KTAS 200338Z 08006KT 02/M06 A3028 RMK A01 T00221055  RH  057%=      5-min Rain = 0
KTAS 200339Z 08006KT 02/M06 A3029 RMK A01 T00221056  RH  057%=      5-min Rain = 0
KTAS 200340Z 08006KT 02/M06 A3029 RMK A01 T00221056  RH  057%=      5-min Rain = 0
KTAS 200341Z 08006KT 02/M06 A3029 RMK A01 T00221055  RH  057%=      5-min Rain = 0
KTAS 200342Z 08006KT 02/M06 A3029 RMK A01 T00231055  RH  056%=      5-min Rain = 0
KTAS 200343Z 09006KT 02/M06 A3028 RMK A01 T00231055  RH  056%=      5-min Rain = 0
KTAS 200344Z 09006KT 02/M06 A3028 RMK A01 T00221055  RH  057%=      5-min Rain = 0
KTAS 200345Z 09007KT 02/M06 A3028 RMK A01 T00211055  RH  057%=      5-min Rain = 0
KTAS 200346Z 09007KT 02/M06 A3027 RMK A01 T00201056  RH  057%=      5-min Rain = 0
KTAS 200347Z 09008KT 02/M06 A3027 RMK A01 T00181056  RH  058%=      5-min Rain = 0
KTAS 200348Z 09007KT 02/M06 A3027 RMK A01 T00181056  RH  058%=      5-min Rain = 0
KTAS 200349Z 09007KT 02/M06 A3027 RMK A01 T00181055  RH  058%=      5-min Rain = 0
KTAS 200350Z 09006KT 02/M05 A3028 RMK A01 T00191054  RH  058%=      5-min Rain = 0
KTAS 200351Z 08007KT 02/M05 A3028 RMK A01 T00191054  RH  058%=      5-min Rain = 0
KTAS 200352Z 08007KT 02/M05 A3028 RMK A01 T00201054  RH  058%=      5-min Rain = 0
KTAS 200353Z 08007KT 02/M05 A3028 RMK A01 T00201054  RH  058%=      5-min Rain = 0
KTAS 200354Z 09007KT 02/M06 A3027 RMK A01 T00201055  RH  058%=      5-min Rain = 0
KTAS 200355Z 09007KT 02/M06 A3027 RMK A01 T00201055  RH  058%=      5-min Rain = 0
KTAS 200356Z 09007KT 02/M06 A3027 RMK A01 T00201055  RH  058%=      5-min Rain = 0
KTAS 200357Z 09007KT 02/M06 A3027 RMK A01 T00191055  RH  058%=      5-min Rain = 0
KTAS 200358Z 09007KT 02/M06 A3027 RMK A01 T00181055  RH  059%=      5-min Rain = 0
KTAS 200359Z 09007KT 02/M05 A3027 RMK A01 T00181053  RH  059%=      5-min Rain = 0
KTAS 200400Z 09007KT 02/M05 A3027 RMK A01 T00191053  RH  059%=      5-min Rain = 0
KTAS 200401Z 09007KT 02/M05 A3027 RMK A01 T00191054  RH  059%=      5-min Rain = 0
KTAS 200402Z 09007KT 02/M05 A3027 RMK A01 T00191053  RH  059%=      5-min Rain = 0
KTAS 200403Z 09007KT 02/M05 A3027 RMK A01 T00201053  RH  059%=      5-min Rain = 0
KTAS 200404Z 09007KT 02/M05 A3027 RMK A01 T00211052  RH  058%=      5-min Rain = 0
KTAS 200405Z 09007KT 02/M05 A3027 RMK A01 T00211053  RH  058%=      5-min Rain = 0
KTAS 200406Z 10006KT 02/M05 A3027 RMK A01 T00191054  RH  058%=      5-min Rain = 0
KTAS 200407Z 09006KT 02/M06 A3027 RMK A01 T00181055  RH  058%=      5-min Rain = 0
KTAS 200408Z 10007KT 02/M05 A3027 RMK A01 T00181054  RH  059%=      5-min Rain = 0
KTAS 200409Z 09007KT 02/M05 A3027 RMK A01 T00181054  RH  059%=      5-min Rain = 0
KTAS 200410Z 09006KT 02/M05 A3027 RMK A01 T00181054  RH  059%=      5-min Rain = 0
KTAS 200411Z 10007KT 02/M05 A3027 RMK A01 T00181054  RH  059%=      5-min Rain = 0
KTAS 200412Z 10007KT 02/M05 A3027 RMK A01 T00191053  RH  059%=      5-min Rain = 0
KTAS 200413Z 10006KT 02/M05 A3027 RMK A01 T00201052  RH  058%=      5-min Rain = 0
KTAS 200414Z 10005KT 02/M05 A3027 RMK A01 T00201054  RH  058%=      5-min Rain = 0
KTAS 200415Z 10005KT 02/M05 A3027 RMK A01 T00201053  RH  058%=      5-min Rain = 0
KTAS 200416Z 10006KT 02/M05 A3027 RMK A01 T00201054  RH  058%=      5-min Rain = 0
KTAS 200417Z 10006KT 02/M05 A3027 RMK A01 T00191054  RH  058%=      5-min Rain = 0
KTAS 200418Z 10006KT 02/M05 A3027 RMK A01 T00191054  RH  058%=      5-min Rain = 0
KTAS 200419Z 10008KT 02/M05 A3027 RMK A01 T00191054  RH  058%=      5-min Rain = 0
KTAS 200420Z 10007KT 02/M05 A3027 RMK A01 T00191054  RH  058%=      5-min Rain = 0
KTAS 200421Z 11008KT 02/M05 A3027 RMK A01 T00191053  RH  059%=      5-min Rain = 0
KTAS 200422Z 11007KT 02/M05 A3027 RMK A01 T00221050  RH  059%=      5-min Rain = 0
KTAS 200423Z 10006KT 02/M05 A3027 RMK A01 T00241048  RH  059%=      5-min Rain = 0
KTAS 200424Z 10006KT 03/M05 A3027 RMK A01 T00251048  RH  059%=      5-min Rain = 0
KTAS 200425Z 10008KT 03/M05 A3027 RMK A01 T00251049  RH  058%=      5-min Rain = 0
KTAS 200426Z 10007KT 03/M05 A3027 RMK A01 T00261048  RH  058%=      5-min Rain = 0
KTAS 200427Z 10007KT 03/M05 A3027 RMK A01 T00281048  RH  057%=      5-min Rain = 0
KTAS 200428Z 10008KT 03/M05 A3027 RMK A01 T00281048  RH  057%=      5-min Rain = 0
KTAS 200429Z 10008KT 03/M05 A3027 RMK A01 T00281049  RH  057%=      5-min Rain = 0
KTAS 200430Z 10008KT 03/M05 A3027 RMK A01 T00291049  RH  057%=      5-min Rain = 0
KTAS 200431Z 10007KT 03/M05 A3027 RMK A01 T00301049  RH  056%=      5-min Rain = 0
KTAS 200432Z 10007KT 03/M05 A3027 RMK A01 T00311049  RH  056%=      5-min Rain = 0
KTAS 200433Z 11006KT 03/M05 A3027 RMK A01 T00321048  RH  056%=      5-min Rain = 0
KTAS 200434Z 10007KT 03/M05 A3027 RMK A01 T00321049  RH  055%=      5-min Rain = 0
KTAS 200435Z 10008KT 03/M05 A3027 RMK A01 T00311050  RH  055%=      5-min Rain = 0
KTAS 200436Z 10008KT 03/M05 A3027 RMK A01 T00301050  RH  056%=      5-min Rain = 0
KTAS 200437Z 10009KT 03/M05 A3027 RMK A01 T00301050  RH  056%=      5-min Rain = 0
KTAS 200438Z 10008KT 03/M05 A3027 RMK A01 T00301050  RH  056%=      5-min Rain = 0
KTAS 200439Z 11008KT 03/M05 A3027 RMK A01 T00301050  RH  056%=      5-min Rain = 0
KTAS 200440Z 11008KT 03/M05 A3028 RMK A01 T00301050  RH  056%=      5-min Rain = 0
KTAS 200441Z 12008KT 03/M05 A3028 RMK A01 T00311049  RH  056%=      5-min Rain = 0
KTAS 200442Z 12008KT 03/M05 A3028 RMK A01 T00321049  RH  055%=      5-min Rain = 0
KTAS 200443Z 12008KT 03/M05 A3028 RMK A01 T00311051  RH  055%=      5-min Rain = 0
KTAS 200444Z 12008KT 03/M05 A3028 RMK A01 T00301052  RH  055%=      5-min Rain = 0
KTAS 200445Z 12008KT 03/M05 A3027 RMK A01 T00271053  RH  055%=      5-min Rain = 0
KTAS 200446Z 12008KT 03/M05 A3027 RMK A01 T00251054  RH  056%=      5-min Rain = 0
KTAS 200447Z 12008KT 02/M05 A3027 RMK A01 T00231054  RH  057%=      5-min Rain = 0
KTAS 200448Z 12008KT 02/M05 A3027 RMK A01 T00211054  RH  057%=      5-min Rain = 0
KTAS 200449Z 12007KT 02/M05 A3028 RMK A01 T00211054  RH  058%=      5-min Rain = 0
KTAS 200450Z 12006KT 02/M05 A3028 RMK A01 T00201054  RH  058%=      5-min Rain = 0
KTAS 200451Z 11007KT 02/M06 A3028 RMK A01 T00181055  RH  058%=      5-min Rain = 0
KTAS 200452Z 11007KT 02/M05 A3028 RMK A01 T00181054  RH  059%=      5-min Rain = 0
KTAS 200453Z 11006KT 02/M05 A3028 RMK A01 T00191054  RH  058%=      5-min Rain = 0
KTAS 200454Z 10006KT 02/M06 A3028 RMK A01 T00181055  RH  059%=      5-min Rain = 0
KTAS 200455Z 11006KT 02/M06 A3028 RMK A01 T00161056  RH  059%=      5-min Rain = 0
KTAS 200456Z 10007KT 02/M06 A3028 RMK A01 T00151055  RH  059%=      5-min Rain = 0
KTAS 200457Z 11007KT 01/M06 A3028 RMK A01 T00141055  RH  060%=      5-min Rain = 0
KTAS 200458Z 11006KT 01/M06 A3028 RMK A01 T00141055  RH  060%=      5-min Rain = 0
KTAS 200459Z 11007KT 01/M06 A3028 RMK A01 T00131055  RH  060%=      5-min Rain = 0
KTAS 200500Z 11007KT 01/M06 A3028 RMK A01 T00131055  RH  060%=      5-min Rain = 0
KTAS 200501Z 13006KT 01/M06 A3028 RMK A01 T00131055  RH  061%=      5-min Rain = 0
KTAS 200502Z 12007KT 01/M05 A3029 RMK A01 T00131054  RH  061%=      5-min Rain = 0
KTAS 200503Z 12008KT 02/M05 A3029 RMK A01 T00151052  RH  061%=      5-min Rain = 0
KTAS 200504Z 12008KT 02/M05 A3029 RMK A01 T00161052  RH  061%=      5-min Rain = 0
KTAS 200505Z 12008KT 02/M05 A3029 RMK A01 T00171052  RH  060%=      5-min Rain = 0
KTAS 200506Z 12007KT 02/M05 A3029 RMK A01 T00181052  RH  060%=      5-min Rain = 0
KTAS 200507Z 12008KT 02/M05 A3029 RMK A01 T00181051  RH  060%=      5-min Rain = 0
KTAS 200508Z 12008KT 02/M05 A3029 RMK A01 T00191052  RH  060%=      5-min Rain = 0
KTAS 200509Z 12007KT 02/M05 A3029 RMK A01 T00181052  RH  060%=      5-min Rain = 0
KTAS 200510Z 12007KT 02/M05 A3029 RMK A01 T00181053  RH  060%=      5-min Rain = 0
KTAS 200511Z 12007KT 02/M05 A3029 RMK A01 T00171053  RH  060%=      5-min Rain = 0
KTAS 200512Z 12007KT 02/M05 A3029 RMK A01 T00161054  RH  060%=      5-min Rain = 0
KTAS 200513Z 13009KT 02/M05 A3029 RMK A01 T00161053  RH  060%=      5-min Rain = 0
KTAS 200514Z 12009KT 02/M05 A3029 RMK A01 T00161053  RH  060%=      5-min Rain = 0
KTAS 200515Z 12008KT 02/M05 A3029 RMK A01 T00171052  RH  060%=      5-min Rain = 0
KTAS 200516Z 12008KT 02/M05 A3029 RMK A01 T00171052  RH  060%=      5-min Rain = 0
KTAS 200517Z 12007KT 02/M05 A3029 RMK A01 T00151053  RH  060%=      5-min Rain = 0
KTAS 200518Z 11006KT 01/M05 A3029 RMK A01 T00141054  RH  061%=      5-min Rain = 0
KTAS 200519Z 12006KT 01/M06 A3029 RMK A01 T00121055  RH  061%=      5-min Rain = 0
KTAS 200520Z 12007KT 01/M06 A3028 RMK A01 T00111055  RH  062%=      5-min Rain = 0
KTAS 200521Z 12007KT 01/M06 A3028 RMK A01 T00101055  RH  062%=      5-min Rain = 0
KTAS 200522Z 12007KT 01/M05 A3028 RMK A01 T00111054  RH  062%=      5-min Rain = 0
KTAS 200523Z 12007KT 01/M05 A3028 RMK A01 T00111053  RH  062%=      5-min Rain = 0
KTAS 200524Z 12007KT 01/M05 A3029 RMK A01 T00121053  RH  062%=      5-min Rain = 0
KTAS 200525Z 12007KT 01/M05 A3029 RMK A01 T00121053  RH  062%=      5-min Rain = 0
KTAS 200526Z 12007KT 01/M05 A3029 RMK A01 T00121053  RH  062%=      5-min Rain = 0
KTAS 200527Z 12007KT 01/M05 A3029 RMK A01 T00121053  RH  062%=      5-min Rain = 0
KTAS 200528Z 12007KT 01/M05 A3029 RMK A01 T00111053  RH  062%=      5-min Rain = 0
KTAS 200529Z 12007KT 01/M05 A3029 RMK A01 T00111052  RH  062%=      5-min Rain = 0
KTAS 200530Z 12008KT 01/M05 A3029 RMK A01 T00121052  RH  062%=      5-min Rain = 0
KTAS 200531Z 12008KT 01/M05 A3029 RMK A01 T00131051  RH  062%=      5-min Rain = 0
KTAS 200532Z 13008KT 01/M05 A3029 RMK A01 T00141050  RH  062%=      5-min Rain = 0
KTAS 200533Z 13009KT 02/M05 A3029 RMK A01 T00151050  RH  062%=      5-min Rain = 0
KTAS 200534Z 13009KT 02/M05 A3029 RMK A01 T00151050  RH  062%=      5-min Rain = 0
KTAS 200535Z 12008KT 02/M05 A3029 RMK A01 T00161049  RH  062%=      5-min Rain = 0
KTAS 200536Z 12007KT 02/M05 A3029 RMK A01 T00161050  RH  061%=      5-min Rain = 0
KTAS 200537Z 12007KT 02/M05 A3029 RMK A01 T00161051  RH  061%=      5-min Rain = 0
KTAS 200538Z 12007KT 02/M05 A3029 RMK A01 T00151051  RH  062%=      5-min Rain = 0
KTAS 200539Z 12007KT 01/M05 A3029 RMK A01 T00141051  RH  062%=      5-min Rain = 0
KTAS 200540Z 12007KT 01/M05 A3029 RMK A01 T00131052  RH  062%=      5-min Rain = 0
KTAS 200541Z 12007KT 01/M05 A3029 RMK A01 T00131052  RH  062%=      5-min Rain = 0
KTAS 200542Z 13009KT 01/M05 A3029 RMK A01 T00121052  RH  062%=      5-min Rain = 0
KTAS 200543Z 13009KT 01/M05 A3029 RMK A01 T00131050  RH  063%=      5-min Rain = 0
KTAS 200544Z 13009KT 02/M05 A3029 RMK A01 T00151049  RH  062%=      5-min Rain = 0
KTAS 200545Z 13008KT 02/M05 A3029 RMK A01 T00151049  RH  062%=      5-min Rain = 0
KTAS 200546Z 13008KT 02/M05 A3029 RMK A01 T00151050  RH  062%=      5-min Rain = 0
KTAS 200547Z 13008KT 02/M05 A3029 RMK A01 T00151050  RH  062%=      5-min Rain = 0
KTAS 200548Z 13007KT 02/M05 A3029 RMK A01 T00151051  RH  062%=      5-min Rain = 0
KTAS 200549Z 12007KT 01/M05 A3029 RMK A01 T00131052  RH  062%=      5-min Rain = 0
KTAS 200550Z 12007KT 01/M05 A3029 RMK A01 T00121052  RH  062%=      5-min Rain = 0
KTAS 200551Z 12007KT 01/M05 A3029 RMK A01 T00121052  RH  063%=      5-min Rain = 0
KTAS 200552Z 12008KT 01/M05 A3029 RMK A01 T00111052  RH  063%=      5-min Rain = 0
KTAS 200553Z 13008KT 01/M05 A3029 RMK A01 T00101053  RH  063%=      5-min Rain = 0
KTAS 200554Z 13008KT 01/M05 A303 RMK A01 T00101052  RH  063%=      5-min Rain = 0
KTAS 200555Z 13009KT 01/M05 A303 RMK A01 T00101051  RH  064%=      5-min Rain = 0
KTAS 200556Z 13008KT 01/M05 A303 RMK A01 T00111050  RH  064%=      5-min Rain = 0
KTAS 200557Z 13008KT 01/M05 A303 RMK A01 T00111050  RH  063%=      5-min Rain = 0
KTAS 200558Z 13008KT 01/M05 A3029 RMK A01 T00111051  RH  063%=      5-min Rain = 0
KTAS 200559Z 13007KT 01/M05 A3029 RMK A01 T00101052  RH  063%=      5-min Rain = 0

Page generated in 0.0528 seconds.